<?xml version="1.0" encoding="UTF-8" standalone="no" ?>
<gpx xmlns="http://www.topografix.com/GPX/1/1" xmlns:xsi="http://www.w3.org/2001/XMLSchema-instance" xsi:schemaLocation="http://www.topografix.com/GPX/1/1 http://www.topografix.com/GPX/1/1/gpx.xsd" version="1.1" creator="VisuGPX - https://www.visugpx.com">
  <metadata>
    <name>Etapes</name>
    <desc><![CDATA[name=Le Raid Pyrénéen RANDONNEUR
time=2022-08-27T15:37:20Z]]></desc>
  </metadata>
  <trk>
    <name><![CDATA[Etapes_2]]></name>
    <trkseg>
      <trkpt lat="43.34473" lon="-1.62091">
        <ele>22.9</ele>
        <time>1970-01-01T00:00:00.000Z</time>
      </trkpt>
      <trkpt lat="43.34401" lon="-1.61967">
        <ele>25</ele>
        <time>2022-08-27T15:37:33.000Z</time>
      </trkpt>
      <trkpt lat="43.34387" lon="-1.61928">
        <ele>25</ele>
        <time>2022-08-27T15:37:39.000Z</time>
      </trkpt>
      <trkpt lat="43.34374" lon="-1.61657">
        <ele>27</ele>
        <time>2022-08-27T15:38:14.000Z</time>
      </trkpt>
      <trkpt lat="43.34359" lon="-1.61637">
        <ele>30</ele>
        <time>2022-08-27T15:38:18.000Z</time>
      </trkpt>
      <trkpt lat="43.34339" lon="-1.61628">
        <ele>32</ele>
        <time>2022-08-27T15:38:22.000Z</time>
      </trkpt>
      <trkpt lat="43.34285" lon="-1.61631">
        <ele>37</ele>
        <time>2022-08-27T15:38:32.000Z</time>
      </trkpt>
      <trkpt lat="43.34251" lon="-1.61629">
        <ele>40</ele>
        <time>2022-08-27T15:38:38.000Z</time>
      </trkpt>
      <trkpt lat="43.34197" lon="-1.61612">
        <ele>43</ele>
        <time>2022-08-27T15:38:47.000Z</time>
      </trkpt>
      <trkpt lat="43.34157" lon="-1.61607">
        <ele>45</ele>
        <time>2022-08-27T15:38:55.000Z</time>
      </trkpt>
      <trkpt lat="43.34097" lon="-1.6162">
        <ele>46</ele>
        <time>2022-08-27T15:39:05.000Z</time>
      </trkpt>
      <trkpt lat="43.3408" lon="-1.61618">
        <ele>47</ele>
        <time>2022-08-27T15:39:08.000Z</time>
      </trkpt>
      <trkpt lat="43.34019" lon="-1.61565">
        <ele>57</ele>
        <time>2022-08-27T15:39:21.000Z</time>
      </trkpt>
      <trkpt lat="43.33986" lon="-1.61558">
        <ele>59</ele>
        <time>2022-08-27T15:39:27.000Z</time>
      </trkpt>
      <trkpt lat="43.33808" lon="-1.6157">
        <ele>62</ele>
        <time>2022-08-27T15:39:59.000Z</time>
      </trkpt>
      <trkpt lat="43.33787" lon="-1.6157">
        <ele>64</ele>
        <time>2022-08-27T15:40:03.000Z</time>
      </trkpt>
      <trkpt lat="43.33701" lon="-1.61543">
        <ele>73</ele>
        <time>2022-08-27T15:40:19.000Z</time>
      </trkpt>
      <trkpt lat="43.33628" lon="-1.61482">
        <ele>80</ele>
        <time>2022-08-27T15:40:34.000Z</time>
      </trkpt>
      <trkpt lat="43.33609" lon="-1.61469">
        <ele>80</ele>
        <time>2022-08-27T15:40:38.000Z</time>
      </trkpt>
      <trkpt lat="43.33597" lon="-1.61454">
        <ele>82</ele>
        <time>2022-08-27T15:40:41.000Z</time>
      </trkpt>
      <trkpt lat="43.33575" lon="-1.6141">
        <ele>86</ele>
        <time>2022-08-27T15:40:48.000Z</time>
      </trkpt>
      <trkpt lat="43.33555" lon="-1.61393">
        <ele>85</ele>
        <time>2022-08-27T15:40:52.000Z</time>
      </trkpt>
      <trkpt lat="43.33546" lon="-1.6138">
        <ele>85</ele>
        <time>2022-08-27T15:40:54.000Z</time>
      </trkpt>
      <trkpt lat="43.3354" lon="-1.61314">
        <ele>96</ele>
        <time>2022-08-27T15:41:03.000Z</time>
      </trkpt>
      <trkpt lat="43.33533" lon="-1.61299">
        <ele>98</ele>
        <time>2022-08-27T15:41:05.000Z</time>
      </trkpt>
      <trkpt lat="43.33508" lon="-1.61282">
        <ele>96</ele>
        <time>2022-08-27T15:41:10.000Z</time>
      </trkpt>
      <trkpt lat="43.335" lon="-1.61273">
        <ele>96</ele>
        <time>2022-08-27T15:41:12.000Z</time>
      </trkpt>
      <trkpt lat="43.33481" lon="-1.61229">
        <ele>102</ele>
        <time>2022-08-27T15:41:19.000Z</time>
      </trkpt>
      <trkpt lat="43.33475" lon="-1.61222">
        <ele>103</ele>
        <time>2022-08-27T15:41:20.000Z</time>
      </trkpt>
      <trkpt lat="43.33449" lon="-1.61215">
        <ele>96</ele>
        <time>2022-08-27T15:41:25.000Z</time>
      </trkpt>
      <trkpt lat="43.33444" lon="-1.61212">
        <ele>95</ele>
        <time>2022-08-27T15:41:26.000Z</time>
      </trkpt>
      <trkpt lat="43.33433" lon="-1.61196">
        <ele>95</ele>
        <time>2022-08-27T15:41:29.000Z</time>
      </trkpt>
      <trkpt lat="43.33429" lon="-1.61184">
        <ele>96</ele>
        <time>2022-08-27T15:41:30.000Z</time>
      </trkpt>
      <trkpt lat="43.33424" lon="-1.61155">
        <ele>99</ele>
        <time>2022-08-27T15:41:34.000Z</time>
      </trkpt>
      <trkpt lat="43.33423" lon="-1.6112">
        <ele>102</ele>
        <time>2022-08-27T15:41:39.000Z</time>
      </trkpt>
      <trkpt lat="43.33432" lon="-1.61065">
        <ele>109</ele>
        <time>2022-08-27T15:41:46.000Z</time>
      </trkpt>
      <trkpt lat="43.33433" lon="-1.61028">
        <ele>110</ele>
        <time>2022-08-27T15:41:51.000Z</time>
      </trkpt>
      <trkpt lat="43.33457" lon="-1.61">
        <ele>119</ele>
        <time>2022-08-27T15:41:57.000Z</time>
      </trkpt>
      <trkpt lat="43.33462" lon="-1.60987">
        <ele>122</ele>
        <time>2022-08-27T15:41:59.000Z</time>
      </trkpt>
      <trkpt lat="43.33442" lon="-1.60949">
        <ele>117</ele>
        <time>2022-08-27T15:42:05.000Z</time>
      </trkpt>
      <trkpt lat="43.33436" lon="-1.60932">
        <ele>116</ele>
        <time>2022-08-27T15:42:07.000Z</time>
      </trkpt>
      <trkpt lat="43.33443" lon="-1.60868">
        <ele>129</ele>
        <time>2022-08-27T15:42:16.000Z</time>
      </trkpt>
      <trkpt lat="43.33442" lon="-1.60852">
        <ele>131</ele>
        <time>2022-08-27T15:42:18.000Z</time>
      </trkpt>
      <trkpt lat="43.33434" lon="-1.60842">
        <ele>131</ele>
        <time>2022-08-27T15:42:20.000Z</time>
      </trkpt>
      <trkpt lat="43.33428" lon="-1.60841">
        <ele>129</ele>
        <time>2022-08-27T15:42:21.000Z</time>
      </trkpt>
      <trkpt lat="43.33391" lon="-1.60848">
        <ele>120</ele>
        <time>2022-08-27T15:42:28.000Z</time>
      </trkpt>
      <trkpt lat="43.33377" lon="-1.60835">
        <ele>120</ele>
        <time>2022-08-27T15:42:31.000Z</time>
      </trkpt>
      <trkpt lat="43.33368" lon="-1.60822">
        <ele>122</ele>
        <time>2022-08-27T15:42:33.000Z</time>
      </trkpt>
      <trkpt lat="43.33357" lon="-1.60797">
        <ele>124</ele>
        <time>2022-08-27T15:42:37.000Z</time>
      </trkpt>
      <trkpt lat="43.33353" lon="-1.60761">
        <ele>130</ele>
        <time>2022-08-27T15:42:41.000Z</time>
      </trkpt>
      <trkpt lat="43.33348" lon="-1.60746">
        <ele>132</ele>
        <time>2022-08-27T15:42:43.000Z</time>
      </trkpt>
      <trkpt lat="43.33305" lon="-1.60709">
        <ele>130</ele>
        <time>2022-08-27T15:42:53.000Z</time>
      </trkpt>
      <trkpt lat="43.33261" lon="-1.60632">
        <ele>134</ele>
        <time>2022-08-27T15:43:05.000Z</time>
      </trkpt>
      <trkpt lat="43.33247" lon="-1.60587">
        <ele>138</ele>
        <time>2022-08-27T15:43:12.000Z</time>
      </trkpt>
      <trkpt lat="43.33247" lon="-1.6052">
        <ele>148</ele>
        <time>2022-08-27T15:43:20.000Z</time>
      </trkpt>
      <trkpt lat="43.33245" lon="-1.6051">
        <ele>148</ele>
        <time>2022-08-27T15:43:22.000Z</time>
      </trkpt>
      <trkpt lat="43.3321" lon="-1.60492">
        <ele>142</ele>
        <time>2022-08-27T15:43:28.000Z</time>
      </trkpt>
      <trkpt lat="43.33194" lon="-1.60476">
        <ele>140</ele>
        <time>2022-08-27T15:43:32.000Z</time>
      </trkpt>
      <trkpt lat="43.3318" lon="-1.60433">
        <ele>143</ele>
        <time>2022-08-27T15:43:38.000Z</time>
      </trkpt>
      <trkpt lat="43.33175" lon="-1.60398">
        <ele>146</ele>
        <time>2022-08-27T15:43:43.000Z</time>
      </trkpt>
      <trkpt lat="43.33136" lon="-1.60295">
        <ele>151</ele>
        <time>2022-08-27T15:43:58.000Z</time>
      </trkpt>
      <trkpt lat="43.33128" lon="-1.60284">
        <ele>151</ele>
        <time>2022-08-27T15:44:00.000Z</time>
      </trkpt>
      <trkpt lat="43.3311" lon="-1.60268">
        <ele>152</ele>
        <time>2022-08-27T15:44:04.000Z</time>
      </trkpt>
      <trkpt lat="43.33092" lon="-1.60256">
        <ele>153</ele>
        <time>2022-08-27T15:44:07.000Z</time>
      </trkpt>
      <trkpt lat="43.33024" lon="-1.60226">
        <ele>156</ele>
        <time>2022-08-27T15:44:20.000Z</time>
      </trkpt>
      <trkpt lat="43.32972" lon="-1.6021">
        <ele>160</ele>
        <time>2022-08-27T15:44:29.000Z</time>
      </trkpt>
      <trkpt lat="43.32789" lon="-1.60188">
        <ele>165</ele>
        <time>2022-08-27T15:45:02.000Z</time>
      </trkpt>
      <trkpt lat="43.32765" lon="-1.60182">
        <ele>165</ele>
        <time>2022-08-27T15:45:06.000Z</time>
      </trkpt>
      <trkpt lat="43.32677" lon="-1.60124">
        <ele>171</ele>
        <time>2022-08-27T15:45:24.000Z</time>
      </trkpt>
      <trkpt lat="43.32592" lon="-1.60099">
        <ele>169</ele>
        <time>2022-08-27T15:45:39.000Z</time>
      </trkpt>
      <trkpt lat="43.32536" lon="-1.60061">
        <ele>174</ele>
        <time>2022-08-27T15:45:50.000Z</time>
      </trkpt>
      <trkpt lat="43.32518" lon="-1.60052">
        <ele>174</ele>
        <time>2022-08-27T15:45:54.000Z</time>
      </trkpt>
      <trkpt lat="43.32506" lon="-1.60051">
        <ele>174</ele>
        <time>2022-08-27T15:45:56.000Z</time>
      </trkpt>
      <trkpt lat="43.32498" lon="-1.60053">
        <ele>173</ele>
        <time>2022-08-27T15:45:57.000Z</time>
      </trkpt>
      <trkpt lat="43.32448" lon="-1.60096">
        <ele>177</ele>
        <time>2022-08-27T15:46:08.000Z</time>
      </trkpt>
      <trkpt lat="43.32435" lon="-1.60098">
        <ele>178</ele>
        <time>2022-08-27T15:46:10.000Z</time>
      </trkpt>
      <trkpt lat="43.32386" lon="-1.60036">
        <ele>179</ele>
        <time>2022-08-27T15:46:22.000Z</time>
      </trkpt>
      <trkpt lat="43.32377" lon="-1.60028">
        <ele>180</ele>
        <time>2022-08-27T15:46:24.000Z</time>
      </trkpt>
      <trkpt lat="43.32324" lon="-1.60003">
        <ele>183</ele>
        <time>2022-08-27T15:46:34.000Z</time>
      </trkpt>
      <trkpt lat="43.323" lon="-1.5999">
        <ele>183</ele>
        <time>2022-08-27T15:46:39.000Z</time>
      </trkpt>
      <trkpt lat="43.32267" lon="-1.59956">
        <ele>180</ele>
        <time>2022-08-27T15:46:46.000Z</time>
      </trkpt>
      <trkpt lat="43.32253" lon="-1.59945">
        <ele>179</ele>
        <time>2022-08-27T15:46:49.000Z</time>
      </trkpt>
      <trkpt lat="43.32244" lon="-1.59944">
        <ele>180</ele>
        <time>2022-08-27T15:46:50.000Z</time>
      </trkpt>
      <trkpt lat="43.32235" lon="-1.59949">
        <ele>182</ele>
        <time>2022-08-27T15:46:52.000Z</time>
      </trkpt>
      <trkpt lat="43.32199" lon="-1.59989">
        <ele>191</ele>
        <time>2022-08-27T15:47:01.000Z</time>
      </trkpt>
      <trkpt lat="43.3219" lon="-1.59987">
        <ele>191</ele>
        <time>2022-08-27T15:47:02.000Z</time>
      </trkpt>
      <trkpt lat="43.32186" lon="-1.59983">
        <ele>191</ele>
        <time>2022-08-27T15:47:03.000Z</time>
      </trkpt>
      <trkpt lat="43.32184" lon="-1.59974">
        <ele>190</ele>
        <time>2022-08-27T15:47:04.000Z</time>
      </trkpt>
      <trkpt lat="43.32191" lon="-1.59932">
        <ele>183</ele>
        <time>2022-08-27T15:47:10.000Z</time>
      </trkpt>
      <trkpt lat="43.32187" lon="-1.59873">
        <ele>177</ele>
        <time>2022-08-27T15:47:18.000Z</time>
      </trkpt>
      <trkpt lat="43.3217" lon="-1.59833">
        <ele>176</ele>
        <time>2022-08-27T15:47:24.000Z</time>
      </trkpt>
      <trkpt lat="43.3215" lon="-1.59815">
        <ele>174</ele>
        <time>2022-08-27T15:47:28.000Z</time>
      </trkpt>
      <trkpt lat="43.32058" lon="-1.59778">
        <ele>168</ele>
        <time>2022-08-27T15:47:45.000Z</time>
      </trkpt>
      <trkpt lat="43.32053" lon="-1.59779">
        <ele>167</ele>
        <time>2022-08-27T15:47:46.000Z</time>
      </trkpt>
      <trkpt lat="43.32044" lon="-1.59785">
        <ele>168</ele>
        <time>2022-08-27T15:47:48.000Z</time>
      </trkpt>
      <trkpt lat="43.32021" lon="-1.59821">
        <ele>173</ele>
        <time>2022-08-27T15:47:54.000Z</time>
      </trkpt>
      <trkpt lat="43.31981" lon="-1.59851">
        <ele>177</ele>
        <time>2022-08-27T15:48:02.000Z</time>
      </trkpt>
      <trkpt lat="43.3197" lon="-1.59854">
        <ele>178</ele>
        <time>2022-08-27T15:48:04.000Z</time>
      </trkpt>
      <trkpt lat="43.31961" lon="-1.5985">
        <ele>177</ele>
        <time>2022-08-27T15:48:06.000Z</time>
      </trkpt>
      <trkpt lat="43.31925" lon="-1.59821">
        <ele>170</ele>
        <time>2022-08-27T15:48:13.000Z</time>
      </trkpt>
      <trkpt lat="43.31897" lon="-1.5982">
        <ele>171</ele>
        <time>2022-08-27T15:48:18.000Z</time>
      </trkpt>
      <trkpt lat="43.31886" lon="-1.59816">
        <ele>171</ele>
        <time>2022-08-27T15:48:20.000Z</time>
      </trkpt>
      <trkpt lat="43.31871" lon="-1.59785">
        <ele>167</ele>
        <time>2022-08-27T15:48:25.000Z</time>
      </trkpt>
      <trkpt lat="43.31864" lon="-1.59779">
        <ele>166</ele>
        <time>2022-08-27T15:48:26.000Z</time>
      </trkpt>
      <trkpt lat="43.31825" lon="-1.59759">
        <ele>166</ele>
        <time>2022-08-27T15:48:34.000Z</time>
      </trkpt>
      <trkpt lat="43.31792" lon="-1.59721">
        <ele>165</ele>
        <time>2022-08-27T15:48:41.000Z</time>
      </trkpt>
      <trkpt lat="43.31765" lon="-1.59718">
        <ele>168</ele>
        <time>2022-08-27T15:48:46.000Z</time>
      </trkpt>
      <trkpt lat="43.3176" lon="-1.59716">
        <ele>169</ele>
        <time>2022-08-27T15:48:47.000Z</time>
      </trkpt>
      <trkpt lat="43.3173" lon="-1.59675">
        <ele>168</ele>
        <time>2022-08-27T15:48:55.000Z</time>
      </trkpt>
      <trkpt lat="43.31726" lon="-1.59669">
        <ele>169</ele>
        <time>2022-08-27T15:48:56.000Z</time>
      </trkpt>
      <trkpt lat="43.31738" lon="-1.59627">
        <ele>160</ele>
        <time>2022-08-27T15:49:02.000Z</time>
      </trkpt>
      <trkpt lat="43.31742" lon="-1.59606">
        <ele>157</ele>
        <time>2022-08-27T15:49:05.000Z</time>
      </trkpt>
      <trkpt lat="43.3174" lon="-1.59581">
        <ele>155</ele>
        <time>2022-08-27T15:49:08.000Z</time>
      </trkpt>
      <trkpt lat="43.31734" lon="-1.59567">
        <ele>154</ele>
        <time>2022-08-27T15:49:10.000Z</time>
      </trkpt>
      <trkpt lat="43.31712" lon="-1.59532">
        <ele>154</ele>
        <time>2022-08-27T15:49:16.000Z</time>
      </trkpt>
      <trkpt lat="43.31704" lon="-1.59523">
        <ele>154</ele>
        <time>2022-08-27T15:49:18.000Z</time>
      </trkpt>
      <trkpt lat="43.31659" lon="-1.59483">
        <ele>154</ele>
        <time>2022-08-27T15:49:28.000Z</time>
      </trkpt>
      <trkpt lat="43.31624" lon="-1.59467">
        <ele>156</ele>
        <time>2022-08-27T15:49:34.000Z</time>
      </trkpt>
      <trkpt lat="43.31606" lon="-1.5943">
        <ele>151</ele>
        <time>2022-08-27T15:49:40.000Z</time>
      </trkpt>
      <trkpt lat="43.31584" lon="-1.59412">
        <ele>150</ele>
        <time>2022-08-27T15:49:45.000Z</time>
      </trkpt>
      <trkpt lat="43.31558" lon="-1.59406">
        <ele>155</ele>
        <time>2022-08-27T15:49:49.000Z</time>
      </trkpt>
      <trkpt lat="43.31535" lon="-1.59358">
        <ele>154</ele>
        <time>2022-08-27T15:49:57.000Z</time>
      </trkpt>
      <trkpt lat="43.31521" lon="-1.59349">
        <ele>156</ele>
        <time>2022-08-27T15:50:00.000Z</time>
      </trkpt>
      <trkpt lat="43.31518" lon="-1.59327">
        <ele>155</ele>
        <time>2022-08-27T15:50:03.000Z</time>
      </trkpt>
      <trkpt lat="43.3154" lon="-1.593">
        <ele>149</ele>
        <time>2022-08-27T15:50:08.000Z</time>
      </trkpt>
      <trkpt lat="43.31547" lon="-1.59288">
        <ele>147</ele>
        <time>2022-08-27T15:50:10.000Z</time>
      </trkpt>
      <trkpt lat="43.31594" lon="-1.59163">
        <ele>135</ele>
        <time>2022-08-27T15:50:28.000Z</time>
      </trkpt>
      <trkpt lat="43.31603" lon="-1.59115">
        <ele>137</ele>
        <time>2022-08-27T15:50:34.000Z</time>
      </trkpt>
      <trkpt lat="43.3165" lon="-1.59097">
        <ele>131</ele>
        <time>2022-08-27T15:50:43.000Z</time>
      </trkpt>
      <trkpt lat="43.31661" lon="-1.5909">
        <ele>131</ele>
        <time>2022-08-27T15:50:45.000Z</time>
      </trkpt>
      <trkpt lat="43.31692" lon="-1.59048">
        <ele>132</ele>
        <time>2022-08-27T15:50:53.000Z</time>
      </trkpt>
      <trkpt lat="43.31706" lon="-1.59034">
        <ele>132</ele>
        <time>2022-08-27T15:50:56.000Z</time>
      </trkpt>
      <trkpt lat="43.31726" lon="-1.59029">
        <ele>130</ele>
        <time>2022-08-27T15:51:00.000Z</time>
      </trkpt>
      <trkpt lat="43.31772" lon="-1.59037">
        <ele>125</ele>
        <time>2022-08-27T15:51:08.000Z</time>
      </trkpt>
      <trkpt lat="43.3178" lon="-1.59034">
        <ele>125</ele>
        <time>2022-08-27T15:51:10.000Z</time>
      </trkpt>
      <trkpt lat="43.31815" lon="-1.5898">
        <ele>128</ele>
        <time>2022-08-27T15:51:19.000Z</time>
      </trkpt>
      <trkpt lat="43.31817" lon="-1.58971">
        <ele>128</ele>
        <time>2022-08-27T15:51:20.000Z</time>
      </trkpt>
      <trkpt lat="43.31815" lon="-1.58952">
        <ele>128</ele>
        <time>2022-08-27T15:51:23.000Z</time>
      </trkpt>
      <trkpt lat="43.31808" lon="-1.5894">
        <ele>128</ele>
        <time>2022-08-27T15:51:25.000Z</time>
      </trkpt>
      <trkpt lat="43.3176" lon="-1.58927">
        <ele>128</ele>
        <time>2022-08-27T15:51:34.000Z</time>
      </trkpt>
      <trkpt lat="43.31753" lon="-1.58923">
        <ele>127</ele>
        <time>2022-08-27T15:51:35.000Z</time>
      </trkpt>
      <trkpt lat="43.31716" lon="-1.58883">
        <ele>124</ele>
        <time>2022-08-27T15:51:43.000Z</time>
      </trkpt>
      <trkpt lat="43.31698" lon="-1.58871">
        <ele>122</ele>
        <time>2022-08-27T15:51:47.000Z</time>
      </trkpt>
      <trkpt lat="43.31684" lon="-1.58869">
        <ele>122</ele>
        <time>2022-08-27T15:51:49.000Z</time>
      </trkpt>
      <trkpt lat="43.3166" lon="-1.58872">
        <ele>123</ele>
        <time>2022-08-27T15:51:54.000Z</time>
      </trkpt>
      <trkpt lat="43.31619" lon="-1.58854">
        <ele>119</ele>
        <time>2022-08-27T15:52:01.000Z</time>
      </trkpt>
      <trkpt lat="43.31611" lon="-1.58853">
        <ele>118</ele>
        <time>2022-08-27T15:52:03.000Z</time>
      </trkpt>
      <trkpt lat="43.315" lon="-1.58857">
        <ele>113</ele>
        <time>2022-08-27T15:52:23.000Z</time>
      </trkpt>
      <trkpt lat="43.31493" lon="-1.58851">
        <ele>111</ele>
        <time>2022-08-27T15:52:24.000Z</time>
      </trkpt>
      <trkpt lat="43.31494" lon="-1.58839">
        <ele>108</ele>
        <time>2022-08-27T15:52:26.000Z</time>
      </trkpt>
      <trkpt lat="43.31502" lon="-1.58832">
        <ele>107</ele>
        <time>2022-08-27T15:52:27.000Z</time>
      </trkpt>
      <trkpt lat="43.31559" lon="-1.58832">
        <ele>112</ele>
        <time>2022-08-27T15:52:38.000Z</time>
      </trkpt>
      <trkpt lat="43.31569" lon="-1.5883">
        <ele>112</ele>
        <time>2022-08-27T15:52:39.000Z</time>
      </trkpt>
      <trkpt lat="43.31614" lon="-1.5881">
        <ele>108</ele>
        <time>2022-08-27T15:52:48.000Z</time>
      </trkpt>
      <trkpt lat="43.31677" lon="-1.588">
        <ele>108</ele>
        <time>2022-08-27T15:52:59.000Z</time>
      </trkpt>
      <trkpt lat="43.31711" lon="-1.58802">
        <ele>110</ele>
        <time>2022-08-27T15:53:05.000Z</time>
      </trkpt>
      <trkpt lat="43.31718" lon="-1.58794">
        <ele>109</ele>
        <time>2022-08-27T15:53:07.000Z</time>
      </trkpt>
      <trkpt lat="43.3172" lon="-1.58782">
        <ele>107</ele>
        <time>2022-08-27T15:53:08.000Z</time>
      </trkpt>
      <trkpt lat="43.31709" lon="-1.58763">
        <ele>103</ele>
        <time>2022-08-27T15:53:11.000Z</time>
      </trkpt>
      <trkpt lat="43.31644" lon="-1.58707">
        <ele>91</ele>
        <time>2022-08-27T15:53:25.000Z</time>
      </trkpt>
      <trkpt lat="43.31629" lon="-1.5868">
        <ele>87</ele>
        <time>2022-08-27T15:53:29.000Z</time>
      </trkpt>
      <trkpt lat="43.31584" lon="-1.58477">
        <ele>72</ele>
        <time>2022-08-27T15:53:57.000Z</time>
      </trkpt>
      <trkpt lat="43.31563" lon="-1.58415">
        <ele>69</ele>
        <time>2022-08-27T15:54:06.000Z</time>
      </trkpt>
      <trkpt lat="43.31486" lon="-1.58324">
        <ele>63</ele>
        <time>2022-08-27T15:54:24.000Z</time>
      </trkpt>
      <trkpt lat="43.31472" lon="-1.58304">
        <ele>62</ele>
        <time>2022-08-27T15:54:28.000Z</time>
      </trkpt>
      <trkpt lat="43.31449" lon="-1.583">
        <ele>61</ele>
        <time>2022-08-27T15:54:32.000Z</time>
      </trkpt>
      <trkpt lat="43.31447" lon="-1.58293">
        <ele>61</ele>
        <time>2022-08-27T15:54:33.000Z</time>
      </trkpt>
      <trkpt lat="43.31452" lon="-1.58272">
        <ele>60</ele>
        <time>2022-08-27T15:54:36.000Z</time>
      </trkpt>
      <trkpt lat="43.31461" lon="-1.58268">
        <ele>60</ele>
        <time>2022-08-27T15:54:38.000Z</time>
      </trkpt>
      <trkpt lat="43.31458" lon="-1.58216">
        <ele>59</ele>
        <time>2022-08-27T15:54:44.000Z</time>
      </trkpt>
      <trkpt lat="43.31461" lon="-1.58171">
        <ele>59</ele>
        <time>2022-08-27T15:54:50.000Z</time>
      </trkpt>
      <trkpt lat="43.31498" lon="-1.58071">
        <ele>57</ele>
        <time>2022-08-27T15:55:05.000Z</time>
      </trkpt>
      <trkpt lat="43.31504" lon="-1.58044">
        <ele>56</ele>
        <time>2022-08-27T15:55:08.000Z</time>
      </trkpt>
      <trkpt lat="43.31504" lon="-1.58004">
        <ele>55</ele>
        <time>2022-08-27T15:55:14.000Z</time>
      </trkpt>
      <trkpt lat="43.31457" lon="-1.57822">
        <ele>63</ele>
        <time>2022-08-27T15:55:39.000Z</time>
      </trkpt>
      <trkpt lat="43.31384" lon="-1.57567">
        <ele>55</ele>
        <time>2022-08-27T15:56:14.000Z</time>
      </trkpt>
      <trkpt lat="43.31367" lon="-1.57516">
        <ele>54</ele>
        <time>2022-08-27T15:56:21.000Z</time>
      </trkpt>
      <trkpt lat="43.31347" lon="-1.57486">
        <ele>53</ele>
        <time>2022-08-27T15:56:27.000Z</time>
      </trkpt>
      <trkpt lat="43.31239" lon="-1.57403">
        <ele>50</ele>
        <time>2022-08-27T15:56:49.000Z</time>
      </trkpt>
      <trkpt lat="43.31083" lon="-1.57257">
        <ele>44</ele>
        <time>2022-08-27T15:57:22.000Z</time>
      </trkpt>
      <trkpt lat="43.3105" lon="-1.5724">
        <ele>46</ele>
        <time>2022-08-27T15:57:29.000Z</time>
      </trkpt>
      <trkpt lat="43.31025" lon="-1.57233">
        <ele>47</ele>
        <time>2022-08-27T15:57:33.000Z</time>
      </trkpt>
      <trkpt lat="43.30967" lon="-1.57228">
        <ele>47</ele>
        <time>2022-08-27T15:57:43.000Z</time>
      </trkpt>
      <trkpt lat="43.30965" lon="-1.57235">
        <ele>47</ele>
        <time>2022-08-27T15:57:44.000Z</time>
      </trkpt>
      <trkpt lat="43.30959" lon="-1.57234">
        <ele>47</ele>
        <time>2022-08-27T15:57:45.000Z</time>
      </trkpt>
      <trkpt lat="43.30986" lon="-1.57145">
        <ele>48</ele>
        <time>2022-08-27T15:57:59.000Z</time>
      </trkpt>
      <trkpt lat="43.30991" lon="-1.57095">
        <ele>49</ele>
        <time>2022-08-27T15:58:05.000Z</time>
      </trkpt>
      <trkpt lat="43.30929" lon="-1.56957">
        <ele>51</ele>
        <time>2022-08-27T15:58:26.000Z</time>
      </trkpt>
      <trkpt lat="43.3092" lon="-1.56912">
        <ele>51</ele>
        <time>2022-08-27T15:58:32.000Z</time>
      </trkpt>
      <trkpt lat="43.3092" lon="-1.56875">
        <ele>50</ele>
        <time>2022-08-27T15:58:37.000Z</time>
      </trkpt>
      <trkpt lat="43.30943" lon="-1.56779">
        <ele>49</ele>
        <time>2022-08-27T15:58:50.000Z</time>
      </trkpt>
      <trkpt lat="43.30953" lon="-1.56759">
        <ele>49</ele>
        <time>2022-08-27T15:58:53.000Z</time>
      </trkpt>
      <trkpt lat="43.31034" lon="-1.56624">
        <ele>47</ele>
        <time>2022-08-27T15:59:16.000Z</time>
      </trkpt>
      <trkpt lat="43.31062" lon="-1.56595">
        <ele>47</ele>
        <time>2022-08-27T15:59:22.000Z</time>
      </trkpt>
      <trkpt lat="43.31209" lon="-1.56507">
        <ele>47</ele>
        <time>2022-08-27T15:59:51.000Z</time>
      </trkpt>
      <trkpt lat="43.31253" lon="-1.56475">
        <ele>47</ele>
        <time>2022-08-27T16:00:00.000Z</time>
      </trkpt>
      <trkpt lat="43.31281" lon="-1.56426">
        <ele>47</ele>
        <time>2022-08-27T16:00:08.000Z</time>
      </trkpt>
      <trkpt lat="43.3132" lon="-1.56367">
        <ele>45</ele>
        <time>2022-08-27T16:00:18.000Z</time>
      </trkpt>
      <trkpt lat="43.31391" lon="-1.56308">
        <ele>44</ele>
        <time>2022-08-27T16:00:33.000Z</time>
      </trkpt>
      <trkpt lat="43.31417" lon="-1.56276">
        <ele>44</ele>
        <time>2022-08-27T16:00:39.000Z</time>
      </trkpt>
      <trkpt lat="43.3143" lon="-1.56253">
        <ele>44</ele>
        <time>2022-08-27T16:00:43.000Z</time>
      </trkpt>
      <trkpt lat="43.31442" lon="-1.5622">
        <ele>45</ele>
        <time>2022-08-27T16:00:48.000Z</time>
      </trkpt>
      <trkpt lat="43.31466" lon="-1.56115">
        <ele>46</ele>
        <time>2022-08-27T16:01:02.000Z</time>
      </trkpt>
      <trkpt lat="43.3147" lon="-1.5611">
        <ele>46</ele>
        <time>2022-08-27T16:01:03.000Z</time>
      </trkpt>
      <trkpt lat="43.3148" lon="-1.56104">
        <ele>47</ele>
        <time>2022-08-27T16:01:05.000Z</time>
      </trkpt>
      <trkpt lat="43.31488" lon="-1.56105">
        <ele>48</ele>
        <time>2022-08-27T16:01:06.000Z</time>
      </trkpt>
      <trkpt lat="43.31562" lon="-1.56154">
        <ele>53</ele>
        <time>2022-08-27T16:01:21.000Z</time>
      </trkpt>
      <trkpt lat="43.3158" lon="-1.56154">
        <ele>53</ele>
        <time>2022-08-27T16:01:24.000Z</time>
      </trkpt>
      <trkpt lat="43.31592" lon="-1.56149">
        <ele>53</ele>
        <time>2022-08-27T16:01:26.000Z</time>
      </trkpt>
      <trkpt lat="43.31617" lon="-1.56129">
        <ele>55</ele>
        <time>2022-08-27T16:01:31.000Z</time>
      </trkpt>
      <trkpt lat="43.31736" lon="-1.56002">
        <ele>53</ele>
        <time>2022-08-27T16:01:58.000Z</time>
      </trkpt>
      <trkpt lat="43.3175" lon="-1.55984">
        <ele>52</ele>
        <time>2022-08-27T16:02:02.000Z</time>
      </trkpt>
      <trkpt lat="43.31769" lon="-1.55915">
        <ele>50</ele>
        <time>2022-08-27T16:02:11.000Z</time>
      </trkpt>
      <trkpt lat="43.31778" lon="-1.55899">
        <ele>50</ele>
        <time>2022-08-27T16:02:14.000Z</time>
      </trkpt>
      <trkpt lat="43.31925" lon="-1.55682">
        <ele>42</ele>
        <time>2022-08-27T16:02:52.000Z</time>
      </trkpt>
      <trkpt lat="43.31942" lon="-1.55653">
        <ele>41</ele>
        <time>2022-08-27T16:02:57.000Z</time>
      </trkpt>
      <trkpt lat="43.3196" lon="-1.55584">
        <ele>38</ele>
        <time>2022-08-27T16:03:07.000Z</time>
      </trkpt>
      <trkpt lat="43.31996" lon="-1.55418">
        <ele>35</ele>
        <time>2022-08-27T16:03:29.000Z</time>
      </trkpt>
      <trkpt lat="43.32004" lon="-1.554">
        <ele>35</ele>
        <time>2022-08-27T16:03:32.000Z</time>
      </trkpt>
      <trkpt lat="43.32013" lon="-1.55389">
        <ele>35</ele>
        <time>2022-08-27T16:03:34.000Z</time>
      </trkpt>
      <trkpt lat="43.32064" lon="-1.55344">
        <ele>34</ele>
        <time>2022-08-27T16:03:45.000Z</time>
      </trkpt>
      <trkpt lat="43.32076" lon="-1.55323">
        <ele>34</ele>
        <time>2022-08-27T16:03:48.000Z</time>
      </trkpt>
      <trkpt lat="43.32149" lon="-1.55057">
        <ele>31</ele>
        <time>2022-08-27T16:04:25.000Z</time>
      </trkpt>
      <trkpt lat="43.32155" lon="-1.55049">
        <ele>31</ele>
        <time>2022-08-27T16:04:26.000Z</time>
      </trkpt>
      <trkpt lat="43.32133" lon="-1.54934">
        <ele>30</ele>
        <time>2022-08-27T16:04:42.000Z</time>
      </trkpt>
      <trkpt lat="43.32123" lon="-1.54908">
        <ele>30</ele>
        <time>2022-08-27T16:04:46.000Z</time>
      </trkpt>
      <trkpt lat="43.31922" lon="-1.5465">
        <ele>39</ele>
        <time>2022-08-27T16:05:35.000Z</time>
      </trkpt>
      <trkpt lat="43.31883" lon="-1.54552">
        <ele>40</ele>
        <time>2022-08-27T16:05:49.000Z</time>
      </trkpt>
      <trkpt lat="43.31879" lon="-1.54529">
        <ele>40</ele>
        <time>2022-08-27T16:05:52.000Z</time>
      </trkpt>
      <trkpt lat="43.31879" lon="-1.54449">
        <ele>41</ele>
        <time>2022-08-27T16:06:03.000Z</time>
      </trkpt>
      <trkpt lat="43.31888" lon="-1.54403">
        <ele>42</ele>
        <time>2022-08-27T16:06:09.000Z</time>
      </trkpt>
      <trkpt lat="43.32012" lon="-1.5395">
        <ele>39</ele>
        <time>2022-08-27T16:07:12.000Z</time>
      </trkpt>
      <trkpt lat="43.32014" lon="-1.53917">
        <ele>39</ele>
        <time>2022-08-27T16:07:16.000Z</time>
      </trkpt>
      <trkpt lat="43.31996" lon="-1.53625">
        <ele>40</ele>
        <time>2022-08-27T16:07:54.000Z</time>
      </trkpt>
      <trkpt lat="43.31993" lon="-1.53606">
        <ele>39</ele>
        <time>2022-08-27T16:07:56.000Z</time>
      </trkpt>
      <trkpt lat="43.31983" lon="-1.53574">
        <ele>39</ele>
        <time>2022-08-27T16:08:01.000Z</time>
      </trkpt>
      <trkpt lat="43.3193" lon="-1.53492">
        <ele>41</ele>
        <time>2022-08-27T16:08:15.000Z</time>
      </trkpt>
      <trkpt lat="43.31705" lon="-1.53146">
        <ele>48</ele>
        <time>2022-08-27T16:09:15.000Z</time>
      </trkpt>
      <trkpt lat="43.31808" lon="-1.5251">
        <ele>53</ele>
        <time>2022-08-27T16:10:40.000Z</time>
      </trkpt>
      <trkpt lat="43.31806" lon="-1.52467">
        <ele>54</ele>
        <time>2022-08-27T16:10:45.000Z</time>
      </trkpt>
      <trkpt lat="43.31793" lon="-1.52431">
        <ele>56</ele>
        <time>2022-08-27T16:10:50.000Z</time>
      </trkpt>
      <trkpt lat="43.31712" lon="-1.52312">
        <ele>58</ele>
        <time>2022-08-27T16:11:11.000Z</time>
      </trkpt>
      <trkpt lat="43.31522" lon="-1.52046">
        <ele>66</ele>
        <time>2022-08-27T16:12:00.000Z</time>
      </trkpt>
      <trkpt lat="43.31497" lon="-1.52021">
        <ele>68</ele>
        <time>2022-08-27T16:12:05.000Z</time>
      </trkpt>
      <trkpt lat="43.3145" lon="-1.52003">
        <ele>68</ele>
        <time>2022-08-27T16:12:14.000Z</time>
      </trkpt>
      <trkpt lat="43.31429" lon="-1.51982">
        <ele>67</ele>
        <time>2022-08-27T16:12:19.000Z</time>
      </trkpt>
      <trkpt lat="43.31387" lon="-1.51789">
        <ele>67</ele>
        <time>2022-08-27T16:12:45.000Z</time>
      </trkpt>
      <trkpt lat="43.31379" lon="-1.51765">
        <ele>67</ele>
        <time>2022-08-27T16:12:48.000Z</time>
      </trkpt>
      <trkpt lat="43.31257" lon="-1.51582">
        <ele>65</ele>
        <time>2022-08-27T16:13:20.000Z</time>
      </trkpt>
      <trkpt lat="43.3123" lon="-1.51538">
        <ele>66</ele>
        <time>2022-08-27T16:13:28.000Z</time>
      </trkpt>
      <trkpt lat="43.31218" lon="-1.51501">
        <ele>67</ele>
        <time>2022-08-27T16:13:33.000Z</time>
      </trkpt>
      <trkpt lat="43.31201" lon="-1.51421">
        <ele>68</ele>
        <time>2022-08-27T16:13:44.000Z</time>
      </trkpt>
      <trkpt lat="43.31184" lon="-1.51227">
        <ele>71</ele>
        <time>2022-08-27T16:14:09.000Z</time>
      </trkpt>
      <trkpt lat="43.31204" lon="-1.51116">
        <ele>70</ele>
        <time>2022-08-27T16:14:24.000Z</time>
      </trkpt>
      <trkpt lat="43.31226" lon="-1.51044">
        <ele>71</ele>
        <time>2022-08-27T16:14:34.000Z</time>
      </trkpt>
      <trkpt lat="43.31244" lon="-1.51">
        <ele>71</ele>
        <time>2022-08-27T16:14:41.000Z</time>
      </trkpt>
      <trkpt lat="43.31292" lon="-1.50937">
        <ele>72</ele>
        <time>2022-08-27T16:14:52.000Z</time>
      </trkpt>
      <trkpt lat="43.31302" lon="-1.50914">
        <ele>71</ele>
        <time>2022-08-27T16:14:56.000Z</time>
      </trkpt>
      <trkpt lat="43.31359" lon="-1.50692">
        <ele>76</ele>
        <time>2022-08-27T16:15:26.000Z</time>
      </trkpt>
      <trkpt lat="43.31362" lon="-1.50663">
        <ele>77</ele>
        <time>2022-08-27T16:15:30.000Z</time>
      </trkpt>
      <trkpt lat="43.31318" lon="-1.50496">
        <ele>77</ele>
        <time>2022-08-27T16:15:53.000Z</time>
      </trkpt>
      <trkpt lat="43.3131" lon="-1.5046">
        <ele>77</ele>
        <time>2022-08-27T16:15:58.000Z</time>
      </trkpt>
      <trkpt lat="43.31306" lon="-1.50309">
        <ele>82</ele>
        <time>2022-08-27T16:16:18.000Z</time>
      </trkpt>
      <trkpt lat="43.31299" lon="-1.50283">
        <ele>84</ele>
        <time>2022-08-27T16:16:21.000Z</time>
      </trkpt>
      <trkpt lat="43.3123" lon="-1.50189">
        <ele>94</ele>
        <time>2022-08-27T16:16:39.000Z</time>
      </trkpt>
      <trkpt lat="43.31208" lon="-1.50169">
        <ele>97</ele>
        <time>2022-08-27T16:16:43.000Z</time>
      </trkpt>
      <trkpt lat="43.31148" lon="-1.50075">
        <ele>97</ele>
        <time>2022-08-27T16:17:00.000Z</time>
      </trkpt>
      <trkpt lat="43.31127" lon="-1.50055">
        <ele>98</ele>
        <time>2022-08-27T16:17:04.000Z</time>
      </trkpt>
      <trkpt lat="43.3113" lon="-1.49834">
        <ele>94</ele>
        <time>2022-08-27T16:17:33.000Z</time>
      </trkpt>
      <trkpt lat="43.31134" lon="-1.49815">
        <ele>94</ele>
        <time>2022-08-27T16:17:35.000Z</time>
      </trkpt>
      <trkpt lat="43.31159" lon="-1.4977">
        <ele>91</ele>
        <time>2022-08-27T16:17:43.000Z</time>
      </trkpt>
      <trkpt lat="43.31226" lon="-1.497">
        <ele>87</ele>
        <time>2022-08-27T16:17:58.000Z</time>
      </trkpt>
      <trkpt lat="43.31316" lon="-1.49586">
        <ele>93</ele>
        <time>2022-08-27T16:18:19.000Z</time>
      </trkpt>
      <trkpt lat="43.31433" lon="-1.49468">
        <ele>96</ele>
        <time>2022-08-27T16:18:45.000Z</time>
      </trkpt>
      <trkpt lat="43.31459" lon="-1.49432">
        <ele>98</ele>
        <time>2022-08-27T16:18:52.000Z</time>
      </trkpt>
      <trkpt lat="43.31542" lon="-1.49296">
        <ele>103</ele>
        <time>2022-08-27T16:19:15.000Z</time>
      </trkpt>
      <trkpt lat="43.31551" lon="-1.49278">
        <ele>103</ele>
        <time>2022-08-27T16:19:18.000Z</time>
      </trkpt>
      <trkpt lat="43.31647" lon="-1.49023">
        <ele>107</ele>
        <time>2022-08-27T16:19:55.000Z</time>
      </trkpt>
      <trkpt lat="43.31664" lon="-1.48991">
        <ele>108</ele>
        <time>2022-08-27T16:20:00.000Z</time>
      </trkpt>
      <trkpt lat="43.31729" lon="-1.48932">
        <ele>112</ele>
        <time>2022-08-27T16:20:14.000Z</time>
      </trkpt>
      <trkpt lat="43.31741" lon="-1.48919">
        <ele>112</ele>
        <time>2022-08-27T16:20:17.000Z</time>
      </trkpt>
      <trkpt lat="43.31801" lon="-1.48839">
        <ele>115</ele>
        <time>2022-08-27T16:20:31.000Z</time>
      </trkpt>
      <trkpt lat="43.31866" lon="-1.48731">
        <ele>120</ele>
        <time>2022-08-27T16:20:50.000Z</time>
      </trkpt>
      <trkpt lat="43.31979" lon="-1.48646">
        <ele>128</ele>
        <time>2022-08-27T16:21:13.000Z</time>
      </trkpt>
      <trkpt lat="43.32027" lon="-1.48596">
        <ele>132</ele>
        <time>2022-08-27T16:21:23.000Z</time>
      </trkpt>
      <trkpt lat="43.32071" lon="-1.48529">
        <ele>136</ele>
        <time>2022-08-27T16:21:35.000Z</time>
      </trkpt>
      <trkpt lat="43.32123" lon="-1.48428">
        <ele>145</ele>
        <time>2022-08-27T16:21:51.000Z</time>
      </trkpt>
      <trkpt lat="43.32182" lon="-1.48299">
        <ele>147</ele>
        <time>2022-08-27T16:22:11.000Z</time>
      </trkpt>
      <trkpt lat="43.32202" lon="-1.48226">
        <ele>149</ele>
        <time>2022-08-27T16:22:21.000Z</time>
      </trkpt>
      <trkpt lat="43.32214" lon="-1.48204">
        <ele>147</ele>
        <time>2022-08-27T16:22:24.000Z</time>
      </trkpt>
      <trkpt lat="43.32257" lon="-1.48145">
        <ele>146</ele>
        <time>2022-08-27T16:22:35.000Z</time>
      </trkpt>
      <trkpt lat="43.32294" lon="-1.48101">
        <ele>152</ele>
        <time>2022-08-27T16:22:44.000Z</time>
      </trkpt>
      <trkpt lat="43.32364" lon="-1.48046">
        <ele>155</ele>
        <time>2022-08-27T16:22:58.000Z</time>
      </trkpt>
      <trkpt lat="43.32387" lon="-1.48022">
        <ele>155</ele>
        <time>2022-08-27T16:23:03.000Z</time>
      </trkpt>
      <trkpt lat="43.3253" lon="-1.47732">
        <ele>161</ele>
        <time>2022-08-27T16:23:49.000Z</time>
      </trkpt>
      <trkpt lat="43.32594" lon="-1.47653">
        <ele>164</ele>
        <time>2022-08-27T16:24:04.000Z</time>
      </trkpt>
      <trkpt lat="43.32706" lon="-1.47459">
        <ele>173</ele>
        <time>2022-08-27T16:24:36.000Z</time>
      </trkpt>
      <trkpt lat="43.32782" lon="-1.47417">
        <ele>174</ele>
        <time>2022-08-27T16:24:51.000Z</time>
      </trkpt>
      <trkpt lat="43.32826" lon="-1.4737">
        <ele>170</ele>
        <time>2022-08-27T16:25:01.000Z</time>
      </trkpt>
      <trkpt lat="43.32869" lon="-1.4729">
        <ele>163</ele>
        <time>2022-08-27T16:25:14.000Z</time>
      </trkpt>
      <trkpt lat="43.32873" lon="-1.47273">
        <ele>162</ele>
        <time>2022-08-27T16:25:16.000Z</time>
      </trkpt>
      <trkpt lat="43.32873" lon="-1.47252">
        <ele>162</ele>
        <time>2022-08-27T16:25:19.000Z</time>
      </trkpt>
      <trkpt lat="43.32863" lon="-1.47189">
        <ele>166</ele>
        <time>2022-08-27T16:25:27.000Z</time>
      </trkpt>
      <trkpt lat="43.32866" lon="-1.47176">
        <ele>165</ele>
        <time>2022-08-27T16:25:29.000Z</time>
      </trkpt>
      <trkpt lat="43.32882" lon="-1.47136">
        <ele>160</ele>
        <time>2022-08-27T16:25:35.000Z</time>
      </trkpt>
      <trkpt lat="43.32884" lon="-1.47084">
        <ele>163</ele>
        <time>2022-08-27T16:25:41.000Z</time>
      </trkpt>
      <trkpt lat="43.32886" lon="-1.47078">
        <ele>164</ele>
        <time>2022-08-27T16:25:42.000Z</time>
      </trkpt>
      <trkpt lat="43.32894" lon="-1.4707">
        <ele>163</ele>
        <time>2022-08-27T16:25:44.000Z</time>
      </trkpt>
      <trkpt lat="43.32971" lon="-1.47057">
        <ele>142</ele>
        <time>2022-08-27T16:25:58.000Z</time>
      </trkpt>
      <trkpt lat="43.32989" lon="-1.47044">
        <ele>139</ele>
        <time>2022-08-27T16:26:02.000Z</time>
      </trkpt>
      <trkpt lat="43.33001" lon="-1.47023">
        <ele>138</ele>
        <time>2022-08-27T16:26:05.000Z</time>
      </trkpt>
      <trkpt lat="43.33007" lon="-1.46977">
        <ele>140</ele>
        <time>2022-08-27T16:26:11.000Z</time>
      </trkpt>
      <trkpt lat="43.32996" lon="-1.46883">
        <ele>147</ele>
        <time>2022-08-27T16:26:23.000Z</time>
      </trkpt>
      <trkpt lat="43.32997" lon="-1.46875">
        <ele>147</ele>
        <time>2022-08-27T16:26:24.000Z</time>
      </trkpt>
      <trkpt lat="43.33006" lon="-1.46851">
        <ele>145</ele>
        <time>2022-08-27T16:26:28.000Z</time>
      </trkpt>
      <trkpt lat="43.3306" lon="-1.46801">
        <ele>125</ele>
        <time>2022-08-27T16:26:39.000Z</time>
      </trkpt>
      <trkpt lat="43.33063" lon="-1.46795">
        <ele>124</ele>
        <time>2022-08-27T16:26:40.000Z</time>
      </trkpt>
      <trkpt lat="43.33067" lon="-1.46781">
        <ele>123</ele>
        <time>2022-08-27T16:26:42.000Z</time>
      </trkpt>
      <trkpt lat="43.33066" lon="-1.46728">
        <ele>125</ele>
        <time>2022-08-27T16:26:49.000Z</time>
      </trkpt>
      <trkpt lat="43.33104" lon="-1.46668">
        <ele>114</ele>
        <time>2022-08-27T16:27:00.000Z</time>
      </trkpt>
      <trkpt lat="43.33106" lon="-1.46658">
        <ele>114</ele>
        <time>2022-08-27T16:27:01.000Z</time>
      </trkpt>
      <trkpt lat="43.331" lon="-1.46578">
        <ele>120</ele>
        <time>2022-08-27T16:27:11.000Z</time>
      </trkpt>
      <trkpt lat="43.33101" lon="-1.46572">
        <ele>121</ele>
        <time>2022-08-27T16:27:12.000Z</time>
      </trkpt>
      <trkpt lat="43.33114" lon="-1.46556">
        <ele>118</ele>
        <time>2022-08-27T16:27:15.000Z</time>
      </trkpt>
      <trkpt lat="43.33179" lon="-1.4653">
        <ele>103</ele>
        <time>2022-08-27T16:27:27.000Z</time>
      </trkpt>
      <trkpt lat="43.33206" lon="-1.4651">
        <ele>99</ele>
        <time>2022-08-27T16:27:33.000Z</time>
      </trkpt>
      <trkpt lat="43.33231" lon="-1.46485">
        <ele>95</ele>
        <time>2022-08-27T16:27:38.000Z</time>
      </trkpt>
      <trkpt lat="43.33244" lon="-1.46464">
        <ele>94</ele>
        <time>2022-08-27T16:27:42.000Z</time>
      </trkpt>
      <trkpt lat="43.33258" lon="-1.46385">
        <ele>97</ele>
        <time>2022-08-27T16:27:53.000Z</time>
      </trkpt>
      <trkpt lat="43.33266" lon="-1.46374">
        <ele>97</ele>
        <time>2022-08-27T16:27:55.000Z</time>
      </trkpt>
      <trkpt lat="43.33316" lon="-1.46353">
        <ele>89</ele>
        <time>2022-08-27T16:28:04.000Z</time>
      </trkpt>
      <trkpt lat="43.33358" lon="-1.46322">
        <ele>84</ele>
        <time>2022-08-27T16:28:12.000Z</time>
      </trkpt>
      <trkpt lat="43.33396" lon="-1.46288">
        <ele>79</ele>
        <time>2022-08-27T16:28:20.000Z</time>
      </trkpt>
      <trkpt lat="43.33411" lon="-1.46262">
        <ele>76</ele>
        <time>2022-08-27T16:28:25.000Z</time>
      </trkpt>
      <trkpt lat="43.33421" lon="-1.46236">
        <ele>74</ele>
        <time>2022-08-27T16:28:29.000Z</time>
      </trkpt>
      <trkpt lat="43.33421" lon="-1.46106">
        <ele>76</ele>
        <time>2022-08-27T16:28:45.000Z</time>
      </trkpt>
      <trkpt lat="43.33428" lon="-1.46082">
        <ele>75</ele>
        <time>2022-08-27T16:28:49.000Z</time>
      </trkpt>
      <trkpt lat="43.33538" lon="-1.45921">
        <ele>67</ele>
        <time>2022-08-27T16:29:18.000Z</time>
      </trkpt>
      <trkpt lat="43.33549" lon="-1.45915">
        <ele>65</ele>
        <time>2022-08-27T16:29:20.000Z</time>
      </trkpt>
      <trkpt lat="43.3358" lon="-1.45852">
        <ele>67</ele>
        <time>2022-08-27T16:29:30.000Z</time>
      </trkpt>
      <trkpt lat="43.33764" lon="-1.45581">
        <ele>62</ele>
        <time>2022-08-27T16:30:18.000Z</time>
      </trkpt>
      <trkpt lat="43.33829" lon="-1.4543">
        <ele>59</ele>
        <time>2022-08-27T16:30:40.000Z</time>
      </trkpt>
      <trkpt lat="43.33848" lon="-1.45394">
        <ele>59</ele>
        <time>2022-08-27T16:30:46.000Z</time>
      </trkpt>
      <trkpt lat="43.33942" lon="-1.45296">
        <ele>60</ele>
        <time>2022-08-27T16:31:07.000Z</time>
      </trkpt>
      <trkpt lat="43.33964" lon="-1.45272">
        <ele>60</ele>
        <time>2022-08-27T16:31:12.000Z</time>
      </trkpt>
      <trkpt lat="43.33986" lon="-1.45227">
        <ele>60</ele>
        <time>2022-08-27T16:31:19.000Z</time>
      </trkpt>
      <trkpt lat="43.34" lon="-1.45166">
        <ele>60</ele>
        <time>2022-08-27T16:31:28.000Z</time>
      </trkpt>
      <trkpt lat="43.33992" lon="-1.45132">
        <ele>62</ele>
        <time>2022-08-27T16:31:32.000Z</time>
      </trkpt>
      <trkpt lat="43.33984" lon="-1.45112">
        <ele>64</ele>
        <time>2022-08-27T16:31:35.000Z</time>
      </trkpt>
      <trkpt lat="43.33869" lon="-1.44918">
        <ele>72</ele>
        <time>2022-08-27T16:32:08.000Z</time>
      </trkpt>
      <trkpt lat="43.3385" lon="-1.44878">
        <ele>73</ele>
        <time>2022-08-27T16:32:14.000Z</time>
      </trkpt>
      <trkpt lat="43.33841" lon="-1.4483">
        <ele>74</ele>
        <time>2022-08-27T16:32:20.000Z</time>
      </trkpt>
      <trkpt lat="43.33841" lon="-1.44745">
        <ele>77</ele>
        <time>2022-08-27T16:32:31.000Z</time>
      </trkpt>
      <trkpt lat="43.33838" lon="-1.44695">
        <ele>78</ele>
        <time>2022-08-27T16:32:38.000Z</time>
      </trkpt>
      <trkpt lat="43.33812" lon="-1.44635">
        <ele>79</ele>
        <time>2022-08-27T16:32:47.000Z</time>
      </trkpt>
      <trkpt lat="43.3378" lon="-1.44624">
        <ele>78</ele>
        <time>2022-08-27T16:32:53.000Z</time>
      </trkpt>
      <trkpt lat="43.33756" lon="-1.44619">
        <ele>78</ele>
        <time>2022-08-27T16:32:58.000Z</time>
      </trkpt>
      <trkpt lat="43.33698" lon="-1.44614">
        <ele>78</ele>
        <time>2022-08-27T16:33:08.000Z</time>
      </trkpt>
      <trkpt lat="43.33615" lon="-1.44623">
        <ele>81</ele>
        <time>2022-08-27T16:33:23.000Z</time>
      </trkpt>
      <trkpt lat="43.33605" lon="-1.44622">
        <ele>82</ele>
        <time>2022-08-27T16:33:25.000Z</time>
      </trkpt>
      <trkpt lat="43.3351" lon="-1.44559">
        <ele>80</ele>
        <time>2022-08-27T16:33:43.000Z</time>
      </trkpt>
      <trkpt lat="43.33485" lon="-1.44544">
        <ele>78</ele>
        <time>2022-08-27T16:33:48.000Z</time>
      </trkpt>
      <trkpt lat="43.33434" lon="-1.44534">
        <ele>78</ele>
        <time>2022-08-27T16:33:58.000Z</time>
      </trkpt>
      <trkpt lat="43.33422" lon="-1.44538">
        <ele>78</ele>
        <time>2022-08-27T16:34:00.000Z</time>
      </trkpt>
      <trkpt lat="43.33413" lon="-1.44544">
        <ele>79</ele>
        <time>2022-08-27T16:34:02.000Z</time>
      </trkpt>
      <trkpt lat="43.334" lon="-1.44559">
        <ele>80</ele>
        <time>2022-08-27T16:34:05.000Z</time>
      </trkpt>
      <trkpt lat="43.33361" lon="-1.4467">
        <ele>83</ele>
        <time>2022-08-27T16:34:20.000Z</time>
      </trkpt>
      <trkpt lat="43.33349" lon="-1.4469">
        <ele>81</ele>
        <time>2022-08-27T16:34:24.000Z</time>
      </trkpt>
      <trkpt lat="43.33331" lon="-1.44705">
        <ele>79</ele>
        <time>2022-08-27T16:34:28.000Z</time>
      </trkpt>
      <trkpt lat="43.33318" lon="-1.44711">
        <ele>79</ele>
        <time>2022-08-27T16:34:30.000Z</time>
      </trkpt>
      <trkpt lat="43.33196" lon="-1.44737">
        <ele>89</ele>
        <time>2022-08-27T16:34:52.000Z</time>
      </trkpt>
      <trkpt lat="43.33177" lon="-1.44757">
        <ele>88</ele>
        <time>2022-08-27T16:34:56.000Z</time>
      </trkpt>
      <trkpt lat="43.33155" lon="-1.44797">
        <ele>88</ele>
        <time>2022-08-27T16:35:03.000Z</time>
      </trkpt>
      <trkpt lat="43.33139" lon="-1.44884">
        <ele>92</ele>
        <time>2022-08-27T16:35:14.000Z</time>
      </trkpt>
      <trkpt lat="43.33126" lon="-1.44932">
        <ele>95</ele>
        <time>2022-08-27T16:35:21.000Z</time>
      </trkpt>
      <trkpt lat="43.33095" lon="-1.44976">
        <ele>91</ele>
        <time>2022-08-27T16:35:29.000Z</time>
      </trkpt>
      <trkpt lat="43.33086" lon="-1.44981">
        <ele>89</ele>
        <time>2022-08-27T16:35:31.000Z</time>
      </trkpt>
      <trkpt lat="43.33067" lon="-1.44981">
        <ele>89</ele>
        <time>2022-08-27T16:35:34.000Z</time>
      </trkpt>
      <trkpt lat="43.33056" lon="-1.44977">
        <ele>89</ele>
        <time>2022-08-27T16:35:36.000Z</time>
      </trkpt>
      <trkpt lat="43.32973" lon="-1.44932">
        <ele>86</ele>
        <time>2022-08-27T16:35:52.000Z</time>
      </trkpt>
      <trkpt lat="43.32934" lon="-1.44923">
        <ele>88</ele>
        <time>2022-08-27T16:35:59.000Z</time>
      </trkpt>
      <trkpt lat="43.32802" lon="-1.44941">
        <ele>102</ele>
        <time>2022-08-27T16:36:23.000Z</time>
      </trkpt>
      <trkpt lat="43.32781" lon="-1.44933">
        <ele>102</ele>
        <time>2022-08-27T16:36:27.000Z</time>
      </trkpt>
      <trkpt lat="43.3272" lon="-1.44881">
        <ele>107</ele>
        <time>2022-08-27T16:36:40.000Z</time>
      </trkpt>
      <trkpt lat="43.32677" lon="-1.4482">
        <ele>102</ele>
        <time>2022-08-27T16:36:51.000Z</time>
      </trkpt>
      <trkpt lat="43.32667" lon="-1.44809">
        <ele>101</ele>
        <time>2022-08-27T16:36:53.000Z</time>
      </trkpt>
      <trkpt lat="43.32601" lon="-1.44772">
        <ele>96</ele>
        <time>2022-08-27T16:37:05.000Z</time>
      </trkpt>
      <trkpt lat="43.32587" lon="-1.44726">
        <ele>92</ele>
        <time>2022-08-27T16:37:12.000Z</time>
      </trkpt>
      <trkpt lat="43.32533" lon="-1.44442">
        <ele>109</ele>
        <time>2022-08-27T16:37:50.000Z</time>
      </trkpt>
      <trkpt lat="43.325" lon="-1.44334">
        <ele>106</ele>
        <time>2022-08-27T16:38:05.000Z</time>
      </trkpt>
      <trkpt lat="43.32513" lon="-1.44298">
        <ele>107</ele>
        <time>2022-08-27T16:38:10.000Z</time>
      </trkpt>
      <trkpt lat="43.32517" lon="-1.44279">
        <ele>107</ele>
        <time>2022-08-27T16:38:13.000Z</time>
      </trkpt>
      <trkpt lat="43.3252" lon="-1.44192">
        <ele>111</ele>
        <time>2022-08-27T16:38:24.000Z</time>
      </trkpt>
      <trkpt lat="43.32546" lon="-1.44082">
        <ele>119</ele>
        <time>2022-08-27T16:38:39.000Z</time>
      </trkpt>
      <trkpt lat="43.32561" lon="-1.43969">
        <ele>122</ele>
        <time>2022-08-27T16:38:54.000Z</time>
      </trkpt>
      <trkpt lat="43.32571" lon="-1.43929">
        <ele>120</ele>
        <time>2022-08-27T16:39:00.000Z</time>
      </trkpt>
      <trkpt lat="43.32586" lon="-1.43894">
        <ele>119</ele>
        <time>2022-08-27T16:39:05.000Z</time>
      </trkpt>
      <trkpt lat="43.32668" lon="-1.43817">
        <ele>127</ele>
        <time>2022-08-27T16:39:23.000Z</time>
      </trkpt>
      <trkpt lat="43.32685" lon="-1.43796">
        <ele>130</ele>
        <time>2022-08-27T16:39:27.000Z</time>
      </trkpt>
      <trkpt lat="43.32712" lon="-1.43722">
        <ele>134</ele>
        <time>2022-08-27T16:39:37.000Z</time>
      </trkpt>
      <trkpt lat="43.32721" lon="-1.43704">
        <ele>134</ele>
        <time>2022-08-27T16:39:40.000Z</time>
      </trkpt>
      <trkpt lat="43.32765" lon="-1.43655">
        <ele>135</ele>
        <time>2022-08-27T16:39:50.000Z</time>
      </trkpt>
      <trkpt lat="43.32822" lon="-1.43606">
        <ele>132</ele>
        <time>2022-08-27T16:40:02.000Z</time>
      </trkpt>
      <trkpt lat="43.32828" lon="-1.43587">
        <ele>130</ele>
        <time>2022-08-27T16:40:05.000Z</time>
      </trkpt>
      <trkpt lat="43.3283" lon="-1.43556">
        <ele>128</ele>
        <time>2022-08-27T16:40:09.000Z</time>
      </trkpt>
      <trkpt lat="43.32808" lon="-1.4344">
        <ele>122</ele>
        <time>2022-08-27T16:40:25.000Z</time>
      </trkpt>
      <trkpt lat="43.32809" lon="-1.43412">
        <ele>121</ele>
        <time>2022-08-27T16:40:28.000Z</time>
      </trkpt>
      <trkpt lat="43.32838" lon="-1.43214">
        <ele>115</ele>
        <time>2022-08-27T16:40:54.000Z</time>
      </trkpt>
      <trkpt lat="43.32844" lon="-1.43186">
        <ele>114</ele>
        <time>2022-08-27T16:40:58.000Z</time>
      </trkpt>
      <trkpt lat="43.32871" lon="-1.43123">
        <ele>114</ele>
        <time>2022-08-27T16:41:08.000Z</time>
      </trkpt>
      <trkpt lat="43.32901" lon="-1.43075">
        <ele>114</ele>
        <time>2022-08-27T16:41:16.000Z</time>
      </trkpt>
      <trkpt lat="43.32893" lon="-1.42946">
        <ele>109</ele>
        <time>2022-08-27T16:41:33.000Z</time>
      </trkpt>
      <trkpt lat="43.32896" lon="-1.42923">
        <ele>108</ele>
        <time>2022-08-27T16:41:36.000Z</time>
      </trkpt>
      <trkpt lat="43.32961" lon="-1.42813">
        <ele>106</ele>
        <time>2022-08-27T16:41:54.000Z</time>
      </trkpt>
      <trkpt lat="43.32988" lon="-1.42751">
        <ele>102</ele>
        <time>2022-08-27T16:42:03.000Z</time>
      </trkpt>
      <trkpt lat="43.33059" lon="-1.42701">
        <ele>108</ele>
        <time>2022-08-27T16:45:07.000Z</time>
      </trkpt>
      <trkpt lat="43.33064" lon="-1.42693">
        <ele>108</ele>
        <time>2022-08-27T16:45:09.000Z</time>
      </trkpt>
      <trkpt lat="43.33105" lon="-1.42554">
        <ele>101</ele>
        <time>2022-08-27T16:45:28.000Z</time>
      </trkpt>
      <trkpt lat="43.33138" lon="-1.42484">
        <ele>103</ele>
        <time>2022-08-27T16:45:39.000Z</time>
      </trkpt>
      <trkpt lat="43.33148" lon="-1.42177">
        <ele>97</ele>
        <time>2022-08-27T16:46:19.000Z</time>
      </trkpt>
      <trkpt lat="43.33158" lon="-1.4212">
        <ele>95</ele>
        <time>2022-08-27T16:46:26.000Z</time>
      </trkpt>
      <trkpt lat="43.33232" lon="-1.4199">
        <ele>101</ele>
        <time>2022-08-27T16:46:48.000Z</time>
      </trkpt>
      <trkpt lat="43.33258" lon="-1.41943">
        <ele>103</ele>
        <time>2022-08-27T16:46:55.000Z</time>
      </trkpt>
      <trkpt lat="43.33266" lon="-1.41915">
        <ele>104</ele>
        <time>2022-08-27T16:46:59.000Z</time>
      </trkpt>
      <trkpt lat="43.3327" lon="-1.41888">
        <ele>103</ele>
        <time>2022-08-27T16:47:03.000Z</time>
      </trkpt>
      <trkpt lat="43.33273" lon="-1.4181">
        <ele>99</ele>
        <time>2022-08-27T16:47:13.000Z</time>
      </trkpt>
      <trkpt lat="43.33269" lon="-1.41783">
        <ele>98</ele>
        <time>2022-08-27T16:47:17.000Z</time>
      </trkpt>
      <trkpt lat="43.33211" lon="-1.41726">
        <ele>96</ele>
        <time>2022-08-27T16:47:29.000Z</time>
      </trkpt>
      <trkpt lat="43.332" lon="-1.41683">
        <ele>94</ele>
        <time>2022-08-27T16:47:35.000Z</time>
      </trkpt>
      <trkpt lat="43.33225" lon="-1.4139">
        <ele>85</ele>
        <time>2022-08-27T16:48:14.000Z</time>
      </trkpt>
      <trkpt lat="43.33229" lon="-1.41356">
        <ele>87</ele>
        <time>2022-08-27T16:48:18.000Z</time>
      </trkpt>
      <trkpt lat="43.33274" lon="-1.4128">
        <ele>93</ele>
        <time>2022-08-27T16:48:31.000Z</time>
      </trkpt>
      <trkpt lat="43.33281" lon="-1.41258">
        <ele>93</ele>
        <time>2022-08-27T16:48:34.000Z</time>
      </trkpt>
      <trkpt lat="43.33267" lon="-1.41038">
        <ele>89</ele>
        <time>2022-08-27T16:49:03.000Z</time>
      </trkpt>
      <trkpt lat="43.33262" lon="-1.40959">
        <ele>87</ele>
        <time>2022-08-27T16:49:13.000Z</time>
      </trkpt>
      <trkpt lat="43.33278" lon="-1.40874">
        <ele>84</ele>
        <time>2022-08-27T16:49:24.000Z</time>
      </trkpt>
      <trkpt lat="43.33278" lon="-1.4085">
        <ele>83</ele>
        <time>2022-08-27T16:49:27.000Z</time>
      </trkpt>
      <trkpt lat="43.33266" lon="-1.40804">
        <ele>82</ele>
        <time>2022-08-27T16:49:34.000Z</time>
      </trkpt>
      <trkpt lat="43.33248" lon="-1.40675">
        <ele>80</ele>
        <time>2022-08-27T16:49:51.000Z</time>
      </trkpt>
      <trkpt lat="43.33246" lon="-1.4062">
        <ele>80</ele>
        <time>2022-08-27T16:49:58.000Z</time>
      </trkpt>
      <trkpt lat="43.33232" lon="-1.40502">
        <ele>78</ele>
        <time>2022-08-27T16:50:13.000Z</time>
      </trkpt>
      <trkpt lat="43.33235" lon="-1.40402">
        <ele>81</ele>
        <time>2022-08-27T16:50:26.000Z</time>
      </trkpt>
      <trkpt lat="43.33233" lon="-1.40366">
        <ele>82</ele>
        <time>2022-08-27T16:50:31.000Z</time>
      </trkpt>
      <trkpt lat="43.33212" lon="-1.40267">
        <ele>79</ele>
        <time>2022-08-27T16:50:44.000Z</time>
      </trkpt>
      <trkpt lat="43.33209" lon="-1.40237">
        <ele>77</ele>
        <time>2022-08-27T16:50:48.000Z</time>
      </trkpt>
      <trkpt lat="43.33209" lon="-1.40203">
        <ele>74</ele>
        <time>2022-08-27T16:50:53.000Z</time>
      </trkpt>
      <trkpt lat="43.33217" lon="-1.40132">
        <ele>70</ele>
        <time>2022-08-27T16:51:02.000Z</time>
      </trkpt>
      <trkpt lat="43.33206" lon="-1.40082">
        <ele>66</ele>
        <time>2022-08-27T16:51:09.000Z</time>
      </trkpt>
      <trkpt lat="43.33202" lon="-1.40043">
        <ele>64</ele>
        <time>2022-08-27T16:51:14.000Z</time>
      </trkpt>
      <trkpt lat="43.33208" lon="-1.4001">
        <ele>63</ele>
        <time>2022-08-27T16:51:18.000Z</time>
      </trkpt>
      <trkpt lat="43.33221" lon="-1.39994">
        <ele>65</ele>
        <time>2022-08-27T16:51:21.000Z</time>
      </trkpt>
      <trkpt lat="43.33174" lon="-1.39893">
        <ele>58</ele>
        <time>2022-08-27T16:51:37.000Z</time>
      </trkpt>
      <trkpt lat="43.33129" lon="-1.39772">
        <ele>52</ele>
        <time>2022-08-27T16:51:54.000Z</time>
      </trkpt>
      <trkpt lat="43.3286" lon="-1.38895">
        <ele>48</ele>
        <time>2022-08-27T16:53:57.000Z</time>
      </trkpt>
      <trkpt lat="43.32824" lon="-1.38785">
        <ele>52</ele>
        <time>2022-08-27T16:54:13.000Z</time>
      </trkpt>
      <trkpt lat="43.32792" lon="-1.38712">
        <ele>58</ele>
        <time>2022-08-27T16:54:24.000Z</time>
      </trkpt>
      <trkpt lat="43.32769" lon="-1.38667">
        <ele>57</ele>
        <time>2022-08-27T16:54:31.000Z</time>
      </trkpt>
      <trkpt lat="43.32742" lon="-1.38624">
        <ele>57</ele>
        <time>2022-08-27T16:54:39.000Z</time>
      </trkpt>
      <trkpt lat="43.32659" lon="-1.38503">
        <ele>63</ele>
        <time>2022-08-27T16:55:00.000Z</time>
      </trkpt>
      <trkpt lat="43.3259" lon="-1.38376">
        <ele>63</ele>
        <time>2022-08-27T16:55:21.000Z</time>
      </trkpt>
      <trkpt lat="43.32525" lon="-1.3825">
        <ele>71</ele>
        <time>2022-08-27T16:55:41.000Z</time>
      </trkpt>
      <trkpt lat="43.32466" lon="-1.38093">
        <ele>79</ele>
        <time>2022-08-27T16:56:04.000Z</time>
      </trkpt>
      <trkpt lat="43.32401" lon="-1.37847">
        <ele>84</ele>
        <time>2022-08-27T16:56:37.000Z</time>
      </trkpt>
      <trkpt lat="43.32357" lon="-1.37701">
        <ele>89</ele>
        <time>2022-08-27T16:56:58.000Z</time>
      </trkpt>
      <trkpt lat="43.32338" lon="-1.37659">
        <ele>88</ele>
        <time>2022-08-27T16:57:04.000Z</time>
      </trkpt>
      <trkpt lat="43.32271" lon="-1.3756">
        <ele>91</ele>
        <time>2022-08-27T16:57:22.000Z</time>
      </trkpt>
      <trkpt lat="43.32231" lon="-1.37467">
        <ele>96</ele>
        <time>2022-08-27T16:57:36.000Z</time>
      </trkpt>
      <trkpt lat="43.32181" lon="-1.37326">
        <ele>101</ele>
        <time>2022-08-27T16:57:56.000Z</time>
      </trkpt>
      <trkpt lat="43.32109" lon="-1.3719">
        <ele>113</ele>
        <time>2022-08-27T16:58:18.000Z</time>
      </trkpt>
      <trkpt lat="43.32086" lon="-1.37132">
        <ele>114</ele>
        <time>2022-08-27T16:58:26.000Z</time>
      </trkpt>
      <trkpt lat="43.32026" lon="-1.36951">
        <ele>129</ele>
        <time>2022-08-27T16:58:52.000Z</time>
      </trkpt>
      <trkpt lat="43.31994" lon="-1.36803">
        <ele>132</ele>
        <time>2022-08-27T16:59:12.000Z</time>
      </trkpt>
      <trkpt lat="43.31996" lon="-1.36657">
        <ele>135</ele>
        <time>2022-08-27T16:59:31.000Z</time>
      </trkpt>
      <trkpt lat="43.31997" lon="-1.36596">
        <ele>139</ele>
        <time>2022-08-27T16:59:39.000Z</time>
      </trkpt>
      <trkpt lat="43.31977" lon="-1.36432">
        <ele>150</ele>
        <time>2022-08-27T17:00:01.000Z</time>
      </trkpt>
      <trkpt lat="43.31962" lon="-1.36357">
        <ele>152</ele>
        <time>2022-08-27T17:00:11.000Z</time>
      </trkpt>
      <trkpt lat="43.319" lon="-1.36185">
        <ele>142</ele>
        <time>2022-08-27T17:00:36.000Z</time>
      </trkpt>
      <trkpt lat="43.31864" lon="-1.361">
        <ele>138</ele>
        <time>2022-08-27T17:00:48.000Z</time>
      </trkpt>
      <trkpt lat="43.31793" lon="-1.35962">
        <ele>130</ele>
        <time>2022-08-27T17:01:10.000Z</time>
      </trkpt>
      <trkpt lat="43.31734" lon="-1.35816">
        <ele>125</ele>
        <time>2022-08-27T17:01:32.000Z</time>
      </trkpt>
      <trkpt lat="43.31639" lon="-1.35637">
        <ele>125</ele>
        <time>2022-08-27T17:02:00.000Z</time>
      </trkpt>
      <trkpt lat="43.31617" lon="-1.35589">
        <ele>125</ele>
        <time>2022-08-27T17:02:08.000Z</time>
      </trkpt>
      <trkpt lat="43.31554" lon="-1.35151">
        <ele>113</ele>
        <time>2022-08-27T17:03:06.000Z</time>
      </trkpt>
      <trkpt lat="43.31549" lon="-1.35137">
        <ele>113</ele>
        <time>2022-08-27T17:03:08.000Z</time>
      </trkpt>
      <trkpt lat="43.3153" lon="-1.35106">
        <ele>113</ele>
        <time>2022-08-27T17:03:13.000Z</time>
      </trkpt>
      <trkpt lat="43.31502" lon="-1.35079">
        <ele>111</ele>
        <time>2022-08-27T17:03:19.000Z</time>
      </trkpt>
      <trkpt lat="43.3145" lon="-1.35059">
        <ele>116</ele>
        <time>2022-08-27T17:03:29.000Z</time>
      </trkpt>
      <trkpt lat="43.31427" lon="-1.35049">
        <ele>117</ele>
        <time>2022-08-27T17:03:34.000Z</time>
      </trkpt>
      <trkpt lat="43.31383" lon="-1.35017">
        <ele>110</ele>
        <time>2022-08-27T17:03:43.000Z</time>
      </trkpt>
      <trkpt lat="43.31367" lon="-1.35014">
        <ele>109</ele>
        <time>2022-08-27T17:03:46.000Z</time>
      </trkpt>
      <trkpt lat="43.31354" lon="-1.35015">
        <ele>109</ele>
        <time>2022-08-27T17:03:48.000Z</time>
      </trkpt>
      <trkpt lat="43.3134" lon="-1.35022">
        <ele>111</ele>
        <time>2022-08-27T17:03:50.000Z</time>
      </trkpt>
      <trkpt lat="43.31294" lon="-1.3506">
        <ele>120</ele>
        <time>2022-08-27T17:04:00.000Z</time>
      </trkpt>
      <trkpt lat="43.31266" lon="-1.35074">
        <ele>119</ele>
        <time>2022-08-27T17:04:05.000Z</time>
      </trkpt>
      <trkpt lat="43.31162" lon="-1.35076">
        <ele>103</ele>
        <time>2022-08-27T17:04:24.000Z</time>
      </trkpt>
      <trkpt lat="43.31138" lon="-1.3509">
        <ele>102</ele>
        <time>2022-08-27T17:04:29.000Z</time>
      </trkpt>
      <trkpt lat="43.31117" lon="-1.35117">
        <ele>102</ele>
        <time>2022-08-27T17:04:34.000Z</time>
      </trkpt>
      <trkpt lat="43.31059" lon="-1.35226">
        <ele>101</ele>
        <time>2022-08-27T17:04:51.000Z</time>
      </trkpt>
      <trkpt lat="43.31007" lon="-1.35284">
        <ele>104</ele>
        <time>2022-08-27T17:05:03.000Z</time>
      </trkpt>
      <trkpt lat="43.30926" lon="-1.35437">
        <ele>97</ele>
        <time>2022-08-27T17:05:28.000Z</time>
      </trkpt>
      <trkpt lat="43.30822" lon="-1.35804">
        <ele>94</ele>
        <time>2022-08-27T17:06:19.000Z</time>
      </trkpt>
      <trkpt lat="43.30784" lon="-1.35917">
        <ele>94</ele>
        <time>2022-08-27T17:06:35.000Z</time>
      </trkpt>
      <trkpt lat="43.30758" lon="-1.35957">
        <ele>92</ele>
        <time>2022-08-27T17:06:42.000Z</time>
      </trkpt>
      <trkpt lat="43.30739" lon="-1.35978">
        <ele>91</ele>
        <time>2022-08-27T17:06:46.000Z</time>
      </trkpt>
      <trkpt lat="43.30656" lon="-1.36039">
        <ele>89</ele>
        <time>2022-08-27T17:07:03.000Z</time>
      </trkpt>
      <trkpt lat="43.30628" lon="-1.3604">
        <ele>88</ele>
        <time>2022-08-27T17:07:08.000Z</time>
      </trkpt>
      <trkpt lat="43.30607" lon="-1.36032">
        <ele>88</ele>
        <time>2022-08-27T17:07:12.000Z</time>
      </trkpt>
      <trkpt lat="43.30592" lon="-1.36022">
        <ele>88</ele>
        <time>2022-08-27T17:07:15.000Z</time>
      </trkpt>
      <trkpt lat="43.3056" lon="-1.3599">
        <ele>89</ele>
        <time>2022-08-27T17:07:22.000Z</time>
      </trkpt>
      <trkpt lat="43.30527" lon="-1.35943">
        <ele>91</ele>
        <time>2022-08-27T17:07:30.000Z</time>
      </trkpt>
      <trkpt lat="43.30509" lon="-1.35913">
        <ele>91</ele>
        <time>2022-08-27T17:07:35.000Z</time>
      </trkpt>
      <trkpt lat="43.30487" lon="-1.35861">
        <ele>94</ele>
        <time>2022-08-27T17:07:43.000Z</time>
      </trkpt>
      <trkpt lat="43.3046" lon="-1.35772">
        <ele>94</ele>
        <time>2022-08-27T17:07:55.000Z</time>
      </trkpt>
      <trkpt lat="43.30449" lon="-1.35726">
        <ele>91</ele>
        <time>2022-08-27T17:08:02.000Z</time>
      </trkpt>
      <trkpt lat="43.30442" lon="-1.35659">
        <ele>85</ele>
        <time>2022-08-27T17:08:11.000Z</time>
      </trkpt>
      <trkpt lat="43.30447" lon="-1.35605">
        <ele>84</ele>
        <time>2022-08-27T17:08:18.000Z</time>
      </trkpt>
      <trkpt lat="43.30496" lon="-1.35435">
        <ele>87</ele>
        <time>2022-08-27T17:08:41.000Z</time>
      </trkpt>
      <trkpt lat="43.305" lon="-1.3538">
        <ele>87</ele>
        <time>2022-08-27T17:08:48.000Z</time>
      </trkpt>
      <trkpt lat="43.30486" lon="-1.3532">
        <ele>84</ele>
        <time>2022-08-27T17:08:57.000Z</time>
      </trkpt>
      <trkpt lat="43.30431" lon="-1.35179">
        <ele>76</ele>
        <time>2022-08-27T17:09:17.000Z</time>
      </trkpt>
      <trkpt lat="43.30411" lon="-1.35144">
        <ele>75</ele>
        <time>2022-08-27T17:09:23.000Z</time>
      </trkpt>
      <trkpt lat="43.30393" lon="-1.35121">
        <ele>76</ele>
        <time>2022-08-27T17:09:27.000Z</time>
      </trkpt>
      <trkpt lat="43.30354" lon="-1.35088">
        <ele>76</ele>
        <time>2022-08-27T17:09:36.000Z</time>
      </trkpt>
      <trkpt lat="43.3029" lon="-1.35054">
        <ele>76</ele>
        <time>2022-08-27T17:09:48.000Z</time>
      </trkpt>
      <trkpt lat="43.3018" lon="-1.35004">
        <ele>74</ele>
        <time>2022-08-27T17:10:08.000Z</time>
      </trkpt>
      <trkpt lat="43.30138" lon="-1.34994">
        <ele>73</ele>
        <time>2022-08-27T17:10:16.000Z</time>
      </trkpt>
      <trkpt lat="43.30076" lon="-1.34989">
        <ele>73</ele>
        <time>2022-08-27T17:10:27.000Z</time>
      </trkpt>
      <trkpt lat="43.29863" lon="-1.35011">
        <ele>73</ele>
        <time>2022-08-27T17:11:05.000Z</time>
      </trkpt>
      <trkpt lat="43.29823" lon="-1.35016">
        <ele>74</ele>
        <time>2022-08-27T17:11:12.000Z</time>
      </trkpt>
      <trkpt lat="43.29664" lon="-1.35016">
        <ele>86</ele>
        <time>2022-08-27T17:11:41.000Z</time>
      </trkpt>
      <trkpt lat="43.2961" lon="-1.35028">
        <ele>88</ele>
        <time>2022-08-27T17:11:50.000Z</time>
      </trkpt>
      <trkpt lat="43.29552" lon="-1.35054">
        <ele>86</ele>
        <time>2022-08-27T17:12:01.000Z</time>
      </trkpt>
      <trkpt lat="43.29529" lon="-1.35068">
        <ele>85</ele>
        <time>2022-08-27T17:12:06.000Z</time>
      </trkpt>
      <trkpt lat="43.29486" lon="-1.35102">
        <ele>84</ele>
        <time>2022-08-27T17:12:14.000Z</time>
      </trkpt>
      <trkpt lat="43.29323" lon="-1.35257">
        <ele>74</ele>
        <time>2022-08-27T17:12:50.000Z</time>
      </trkpt>
      <trkpt lat="43.29223" lon="-1.35322">
        <ele>71</ele>
        <time>2022-08-27T17:13:10.000Z</time>
      </trkpt>
      <trkpt lat="43.29194" lon="-1.35328">
        <ele>71</ele>
        <time>2022-08-27T17:13:15.000Z</time>
      </trkpt>
      <trkpt lat="43.2912" lon="-1.35322">
        <ele>71</ele>
        <time>2022-08-27T17:13:28.000Z</time>
      </trkpt>
      <trkpt lat="43.29093" lon="-1.35312">
        <ele>72</ele>
        <time>2022-08-27T17:13:33.000Z</time>
      </trkpt>
      <trkpt lat="43.28877" lon="-1.35197">
        <ele>84</ele>
        <time>2022-08-27T17:14:14.000Z</time>
      </trkpt>
      <trkpt lat="43.2886" lon="-1.35191">
        <ele>85</ele>
        <time>2022-08-27T17:14:17.000Z</time>
      </trkpt>
      <trkpt lat="43.28714" lon="-1.35162">
        <ele>89</ele>
        <time>2022-08-27T17:14:44.000Z</time>
      </trkpt>
      <trkpt lat="43.2866" lon="-1.35167">
        <ele>89</ele>
        <time>2022-08-27T17:14:53.000Z</time>
      </trkpt>
      <trkpt lat="43.28607" lon="-1.35187">
        <ele>86</ele>
        <time>2022-08-27T17:15:03.000Z</time>
      </trkpt>
      <trkpt lat="43.28479" lon="-1.35296">
        <ele>76</ele>
        <time>2022-08-27T17:15:30.000Z</time>
      </trkpt>
      <trkpt lat="43.28443" lon="-1.35325">
        <ele>75</ele>
        <time>2022-08-27T17:15:37.000Z</time>
      </trkpt>
      <trkpt lat="43.28366" lon="-1.35371">
        <ele>74</ele>
        <time>2022-08-27T17:15:52.000Z</time>
      </trkpt>
      <trkpt lat="43.28346" lon="-1.35381">
        <ele>74</ele>
        <time>2022-08-27T17:15:56.000Z</time>
      </trkpt>
      <trkpt lat="43.28281" lon="-1.35396">
        <ele>75</ele>
        <time>2022-08-27T17:16:08.000Z</time>
      </trkpt>
      <trkpt lat="43.28245" lon="-1.35396">
        <ele>76</ele>
        <time>2022-08-27T17:16:14.000Z</time>
      </trkpt>
      <trkpt lat="43.28203" lon="-1.35388">
        <ele>78</ele>
        <time>2022-08-27T17:16:22.000Z</time>
      </trkpt>
      <trkpt lat="43.28106" lon="-1.35348">
        <ele>81</ele>
        <time>2022-08-27T17:16:40.000Z</time>
      </trkpt>
      <trkpt lat="43.2804" lon="-1.35313">
        <ele>82</ele>
        <time>2022-08-27T17:16:52.000Z</time>
      </trkpt>
      <trkpt lat="43.2799" lon="-1.35275">
        <ele>83</ele>
        <time>2022-08-27T17:17:02.000Z</time>
      </trkpt>
      <trkpt lat="43.27914" lon="-1.3518">
        <ele>86</ele>
        <time>2022-08-27T17:17:21.000Z</time>
      </trkpt>
      <trkpt lat="43.27877" lon="-1.35144">
        <ele>86</ele>
        <time>2022-08-27T17:17:29.000Z</time>
      </trkpt>
      <trkpt lat="43.27475" lon="-1.34923">
        <ele>88</ele>
        <time>2022-08-27T17:18:46.000Z</time>
      </trkpt>
      <trkpt lat="43.27364" lon="-1.34874">
        <ele>86</ele>
        <time>2022-08-27T17:19:07.000Z</time>
      </trkpt>
      <trkpt lat="43.27242" lon="-1.34779">
        <ele>96</ele>
        <time>2022-08-27T17:19:32.000Z</time>
      </trkpt>
      <trkpt lat="43.27197" lon="-1.34747">
        <ele>93</ele>
        <time>2022-08-27T17:19:41.000Z</time>
      </trkpt>
      <trkpt lat="43.27049" lon="-1.34663">
        <ele>86</ele>
        <time>2022-08-27T17:20:09.000Z</time>
      </trkpt>
      <trkpt lat="43.27008" lon="-1.34636">
        <ele>87</ele>
        <time>2022-08-27T17:20:17.000Z</time>
      </trkpt>
      <trkpt lat="43.26831" lon="-1.34442">
        <ele>88</ele>
        <time>2022-08-27T17:20:58.000Z</time>
      </trkpt>
      <trkpt lat="43.26803" lon="-1.34395">
        <ele>93</ele>
        <time>2022-08-27T17:21:06.000Z</time>
      </trkpt>
      <trkpt lat="43.26745" lon="-1.34257">
        <ele>98</ele>
        <time>2022-08-27T17:21:26.000Z</time>
      </trkpt>
      <trkpt lat="43.2671" lon="-1.341">
        <ele>105</ele>
        <time>2022-08-27T17:21:48.000Z</time>
      </trkpt>
      <trkpt lat="43.26698" lon="-1.34059">
        <ele>99</ele>
        <time>2022-08-27T17:21:53.000Z</time>
      </trkpt>
      <trkpt lat="43.26648" lon="-1.33944">
        <ele>83</ele>
        <time>2022-08-27T17:22:11.000Z</time>
      </trkpt>
      <trkpt lat="43.26627" lon="-1.33888">
        <ele>83</ele>
        <time>2022-08-27T17:22:19.000Z</time>
      </trkpt>
      <trkpt lat="43.26604" lon="-1.3373">
        <ele>82</ele>
        <time>2022-08-27T17:22:40.000Z</time>
      </trkpt>
      <trkpt lat="43.26606" lon="-1.33676">
        <ele>83</ele>
        <time>2022-08-27T17:22:47.000Z</time>
      </trkpt>
      <trkpt lat="43.26612" lon="-1.33636">
        <ele>83</ele>
        <time>2022-08-27T17:22:52.000Z</time>
      </trkpt>
      <trkpt lat="43.26654" lon="-1.33479">
        <ele>85</ele>
        <time>2022-08-27T17:23:14.000Z</time>
      </trkpt>
      <trkpt lat="43.26669" lon="-1.33366">
        <ele>84</ele>
        <time>2022-08-27T17:23:29.000Z</time>
      </trkpt>
      <trkpt lat="43.26676" lon="-1.33137">
        <ele>83</ele>
        <time>2022-08-27T17:23:58.000Z</time>
      </trkpt>
      <trkpt lat="43.26671" lon="-1.33099">
        <ele>83</ele>
        <time>2022-08-27T17:24:03.000Z</time>
      </trkpt>
      <trkpt lat="43.26656" lon="-1.33046">
        <ele>86</ele>
        <time>2022-08-27T17:24:11.000Z</time>
      </trkpt>
      <trkpt lat="43.26602" lon="-1.329">
        <ele>92</ele>
        <time>2022-08-27T17:24:32.000Z</time>
      </trkpt>
      <trkpt lat="43.26564" lon="-1.32825">
        <ele>97</ele>
        <time>2022-08-27T17:24:44.000Z</time>
      </trkpt>
      <trkpt lat="43.26481" lon="-1.32722">
        <ele>100</ele>
        <time>2022-08-27T17:25:04.000Z</time>
      </trkpt>
      <trkpt lat="43.26371" lon="-1.32582">
        <ele>103</ele>
        <time>2022-08-27T17:25:30.000Z</time>
      </trkpt>
      <trkpt lat="43.26353" lon="-1.32555">
        <ele>102</ele>
        <time>2022-08-27T17:25:35.000Z</time>
      </trkpt>
      <trkpt lat="43.26235" lon="-1.32332">
        <ele>111</ele>
        <time>2022-08-27T17:26:11.000Z</time>
      </trkpt>
      <trkpt lat="43.26114" lon="-1.32202">
        <ele>106</ele>
        <time>2022-08-27T17:26:38.000Z</time>
      </trkpt>
      <trkpt lat="43.26094" lon="-1.3217">
        <ele>101</ele>
        <time>2022-08-27T17:26:44.000Z</time>
      </trkpt>
      <trkpt lat="43.26048" lon="-1.32074">
        <ele>105</ele>
        <time>2022-08-27T17:26:59.000Z</time>
      </trkpt>
      <trkpt lat="43.25998" lon="-1.32014">
        <ele>104</ele>
        <time>2022-08-27T17:27:10.000Z</time>
      </trkpt>
      <trkpt lat="43.25964" lon="-1.31991">
        <ele>105</ele>
        <time>2022-08-27T17:27:17.000Z</time>
      </trkpt>
      <trkpt lat="43.25832" lon="-1.31922">
        <ele>101</ele>
        <time>2022-08-27T17:27:42.000Z</time>
      </trkpt>
      <trkpt lat="43.25802" lon="-1.31913">
        <ele>102</ele>
        <time>2022-08-27T17:27:48.000Z</time>
      </trkpt>
      <trkpt lat="43.25678" lon="-1.31908">
        <ele>105</ele>
        <time>2022-08-27T17:28:10.000Z</time>
      </trkpt>
      <trkpt lat="43.25647" lon="-1.31914">
        <ele>111</ele>
        <time>2022-08-27T17:28:15.000Z</time>
      </trkpt>
      <trkpt lat="43.25599" lon="-1.31952">
        <ele>116</ele>
        <time>2022-08-27T17:28:25.000Z</time>
      </trkpt>
      <trkpt lat="43.25576" lon="-1.31986">
        <ele>110</ele>
        <time>2022-08-27T17:28:31.000Z</time>
      </trkpt>
      <trkpt lat="43.25543" lon="-1.32099">
        <ele>103</ele>
        <time>2022-08-27T17:28:47.000Z</time>
      </trkpt>
      <trkpt lat="43.25528" lon="-1.32125">
        <ele>103</ele>
        <time>2022-08-27T17:28:52.000Z</time>
      </trkpt>
      <trkpt lat="43.25505" lon="-1.32146">
        <ele>102</ele>
        <time>2022-08-27T17:28:56.000Z</time>
      </trkpt>
      <trkpt lat="43.25482" lon="-1.32153">
        <ele>100</ele>
        <time>2022-08-27T17:29:01.000Z</time>
      </trkpt>
      <trkpt lat="43.25467" lon="-1.32152">
        <ele>99</ele>
        <time>2022-08-27T17:29:03.000Z</time>
      </trkpt>
      <trkpt lat="43.25422" lon="-1.32131">
        <ele>100</ele>
        <time>2022-08-27T17:29:12.000Z</time>
      </trkpt>
      <trkpt lat="43.25398" lon="-1.3211">
        <ele>103</ele>
        <time>2022-08-27T17:29:17.000Z</time>
      </trkpt>
      <trkpt lat="43.25355" lon="-1.32042">
        <ele>108</ele>
        <time>2022-08-27T17:29:29.000Z</time>
      </trkpt>
      <trkpt lat="43.25319" lon="-1.31981">
        <ele>110</ele>
        <time>2022-08-27T17:29:39.000Z</time>
      </trkpt>
      <trkpt lat="43.25245" lon="-1.3191">
        <ele>108</ele>
        <time>2022-08-27T17:29:55.000Z</time>
      </trkpt>
      <trkpt lat="43.25183" lon="-1.31867">
        <ele>109</ele>
        <time>2022-08-27T17:30:07.000Z</time>
      </trkpt>
      <trkpt lat="43.25112" lon="-1.31837">
        <ele>105</ele>
        <time>2022-08-27T17:30:21.000Z</time>
      </trkpt>
      <trkpt lat="43.25067" lon="-1.31828">
        <ele>105</ele>
        <time>2022-08-27T17:30:29.000Z</time>
      </trkpt>
      <trkpt lat="43.24928" lon="-1.31849">
        <ele>110</ele>
        <time>2022-08-27T17:30:54.000Z</time>
      </trkpt>
      <trkpt lat="43.24902" lon="-1.31846">
        <ele>111</ele>
        <time>2022-08-27T17:30:58.000Z</time>
      </trkpt>
      <trkpt lat="43.24758" lon="-1.31762">
        <ele>112</ele>
        <time>2022-08-27T17:31:26.000Z</time>
      </trkpt>
      <trkpt lat="43.24729" lon="-1.31734">
        <ele>114</ele>
        <time>2022-08-27T17:31:32.000Z</time>
      </trkpt>
      <trkpt lat="43.24709" lon="-1.31707">
        <ele>116</ele>
        <time>2022-08-27T17:31:37.000Z</time>
      </trkpt>
      <trkpt lat="43.24618" lon="-1.31532">
        <ele>123</ele>
        <time>2022-08-27T17:32:05.000Z</time>
      </trkpt>
      <trkpt lat="43.24578" lon="-1.3139">
        <ele>117</ele>
        <time>2022-08-27T17:32:25.000Z</time>
      </trkpt>
      <trkpt lat="43.24453" lon="-1.31061">
        <ele>117</ele>
        <time>2022-08-27T17:33:13.000Z</time>
      </trkpt>
      <trkpt lat="43.2442" lon="-1.30934">
        <ele>110</ele>
        <time>2022-08-27T17:33:31.000Z</time>
      </trkpt>
      <trkpt lat="43.24403" lon="-1.30829">
        <ele>111</ele>
        <time>2022-08-27T17:33:45.000Z</time>
      </trkpt>
      <trkpt lat="43.24419" lon="-1.30364">
        <ele>121</ele>
        <time>2022-08-27T17:34:45.000Z</time>
      </trkpt>
      <trkpt lat="43.24409" lon="-1.30291">
        <ele>121</ele>
        <time>2022-08-27T17:34:55.000Z</time>
      </trkpt>
      <trkpt lat="43.24388" lon="-1.30209">
        <ele>121</ele>
        <time>2022-08-27T17:35:06.000Z</time>
      </trkpt>
      <trkpt lat="43.24323" lon="-1.30044">
        <ele>120</ele>
        <time>2022-08-27T17:35:30.000Z</time>
      </trkpt>
      <trkpt lat="43.24308" lon="-1.30012">
        <ele>119</ele>
        <time>2022-08-27T17:35:35.000Z</time>
      </trkpt>
      <trkpt lat="43.24286" lon="-1.29975">
        <ele>119</ele>
        <time>2022-08-27T17:35:41.000Z</time>
      </trkpt>
      <trkpt lat="43.24252" lon="-1.29933">
        <ele>116</ele>
        <time>2022-08-27T17:35:49.000Z</time>
      </trkpt>
      <trkpt lat="43.24043" lon="-1.29711">
        <ele>111</ele>
        <time>2022-08-27T17:36:36.000Z</time>
      </trkpt>
      <trkpt lat="43.23861" lon="-1.29604">
        <ele>103</ele>
        <time>2022-08-27T17:37:12.000Z</time>
      </trkpt>
      <trkpt lat="43.23846" lon="-1.29602">
        <ele>103</ele>
        <time>2022-08-27T17:37:14.000Z</time>
      </trkpt>
      <trkpt lat="43.23803" lon="-1.29604">
        <ele>103</ele>
        <time>2022-08-27T17:37:22.000Z</time>
      </trkpt>
      <trkpt lat="43.23725" lon="-1.29626">
        <ele>103</ele>
        <time>2022-08-27T17:37:36.000Z</time>
      </trkpt>
      <trkpt lat="43.23686" lon="-1.29634">
        <ele>103</ele>
        <time>2022-08-27T17:37:43.000Z</time>
      </trkpt>
      <trkpt lat="43.23553" lon="-1.29648">
        <ele>101</ele>
        <time>2022-08-27T17:38:07.000Z</time>
      </trkpt>
      <trkpt lat="43.23514" lon="-1.29661">
        <ele>102</ele>
        <time>2022-08-27T17:38:14.000Z</time>
      </trkpt>
      <trkpt lat="43.23495" lon="-1.29672">
        <ele>102</ele>
        <time>2022-08-27T17:38:18.000Z</time>
      </trkpt>
      <trkpt lat="43.23414" lon="-1.29742">
        <ele>104</ele>
        <time>2022-08-27T17:38:35.000Z</time>
      </trkpt>
      <trkpt lat="43.2306" lon="-1.30071">
        <ele>110</ele>
        <time>2022-08-27T17:39:51.000Z</time>
      </trkpt>
      <trkpt lat="43.23053" lon="-1.30081">
        <ele>110</ele>
        <time>2022-08-27T17:39:53.000Z</time>
      </trkpt>
      <trkpt lat="43.23035" lon="-1.30091">
        <ele>112</ele>
        <time>2022-08-27T17:39:56.000Z</time>
      </trkpt>
      <trkpt lat="43.23013" lon="-1.30094">
        <ele>114</ele>
        <time>2022-08-27T17:40:00.000Z</time>
      </trkpt>
    </trkseg>
  </trk>
</gpx>